<?xml version="1.0" encoding="UTF-8" standalone="no" ?>
<gpx xmlns="http://www.topografix.com/GPX/1/1" xmlns:xsi="http://www.w3.org/2001/XMLSchema-instance" xsi:schemaLocation="http://www.topografix.com/GPX/1/1 http://www.topografix.com/GPX/1/1/gpx.xsd" version="1.1" creator="VisuGPX - https://www.visugpx.com">
  <metadata>
    <name>La terrasse - La gorge </name>
    <desc><![CDATA[Le sentier "La gorge" en boucle par la route de la terrasse.]]></desc>
  </metadata>
  <trk>
    <name><![CDATA[30 nov. 2011 12:37:57]]></name>
    <cmt><![CDATA[30 nov. 2011 12:37:57]]></cmt>
    <trkseg>
      <trkpt lat="45.32059" lon="5.92774">
        <ele>251</ele>
        <time>2011-11-30T11:37:57Z</time>
      </trkpt>
      <trkpt lat="45.32047" lon="5.92774">
        <ele>249</ele>
        <time>2011-11-30T11:38:14Z</time>
      </trkpt>
      <trkpt lat="45.32026" lon="5.92756">
        <ele>243</ele>
        <time>2011-11-30T11:38:20Z</time>
      </trkpt>
      <trkpt lat="45.3202" lon="5.92744">
        <ele>244</ele>
        <time>2011-11-30T11:38:23Z</time>
      </trkpt>
      <trkpt lat="45.32011" lon="5.92733">
        <ele>250</ele>
        <time>2011-11-30T11:38:26Z</time>
      </trkpt>
      <trkpt lat="45.31998" lon="5.92713">
        <ele>240</ele>
        <time>2011-11-30T11:38:30Z</time>
      </trkpt>
      <trkpt lat="45.31991" lon="5.92702">
        <ele>240</ele>
        <time>2011-11-30T11:38:32Z</time>
      </trkpt>
      <trkpt lat="45.31962" lon="5.92632">
        <ele>256</ele>
        <time>2011-11-30T11:38:44Z</time>
      </trkpt>
      <trkpt lat="45.31961" lon="5.92614">
        <ele>256</ele>
        <time>2011-11-30T11:38:46Z</time>
      </trkpt>
      <trkpt lat="45.31955" lon="5.92598">
        <ele>253</ele>
        <time>2011-11-30T11:38:49Z</time>
      </trkpt>
      <trkpt lat="45.31951" lon="5.92579">
        <ele>252</ele>
        <time>2011-11-30T11:38:52Z</time>
      </trkpt>
      <trkpt lat="45.31949" lon="5.92566">
        <ele>254</ele>
        <time>2011-11-30T11:38:54Z</time>
      </trkpt>
      <trkpt lat="45.31947" lon="5.92553">
        <ele>253</ele>
        <time>2011-11-30T11:38:56Z</time>
      </trkpt>
      <trkpt lat="45.31933" lon="5.92487">
        <ele>249</ele>
        <time>2011-11-30T11:39:07Z</time>
      </trkpt>
      <trkpt lat="45.31922" lon="5.92459">
        <ele>253</ele>
        <time>2011-11-30T11:39:13Z</time>
      </trkpt>
      <trkpt lat="45.31915" lon="5.92444">
        <ele>253</ele>
        <time>2011-11-30T11:39:16Z</time>
      </trkpt>
      <trkpt lat="45.3191" lon="5.92429">
        <ele>253</ele>
        <time>2011-11-30T11:39:19Z</time>
      </trkpt>
      <trkpt lat="45.31901" lon="5.92403">
        <ele>258</ele>
        <time>2011-11-30T11:39:24Z</time>
      </trkpt>
      <trkpt lat="45.31894" lon="5.92387">
        <ele>252</ele>
        <time>2011-11-30T11:39:27Z</time>
      </trkpt>
      <trkpt lat="45.31879" lon="5.9234">
        <ele>264</ele>
        <time>2011-11-30T11:39:35Z</time>
      </trkpt>
      <trkpt lat="45.31873" lon="5.92325">
        <ele>260</ele>
        <time>2011-11-30T11:39:38Z</time>
      </trkpt>
      <trkpt lat="45.31867" lon="5.92309">
        <ele>261</ele>
        <time>2011-11-30T11:39:41Z</time>
      </trkpt>
      <trkpt lat="45.31861" lon="5.92295">
        <ele>264</ele>
        <time>2011-11-30T11:39:44Z</time>
      </trkpt>
      <trkpt lat="45.31853" lon="5.92281">
        <ele>264</ele>
        <time>2011-11-30T11:39:47Z</time>
      </trkpt>
      <trkpt lat="45.31844" lon="5.92269">
        <ele>264</ele>
        <time>2011-11-30T11:39:50Z</time>
      </trkpt>
      <trkpt lat="45.31836" lon="5.92257">
        <ele>260</ele>
        <time>2011-11-30T11:39:53Z</time>
      </trkpt>
      <trkpt lat="45.31823" lon="5.92232">
        <ele>266</ele>
        <time>2011-11-30T11:39:58Z</time>
      </trkpt>
      <trkpt lat="45.31816" lon="5.92218">
        <ele>265</ele>
        <time>2011-11-30T11:40:01Z</time>
      </trkpt>
      <trkpt lat="45.31807" lon="5.922">
        <ele>270</ele>
        <time>2011-11-30T11:40:05Z</time>
      </trkpt>
      <trkpt lat="45.31801" lon="5.92185">
        <ele>264</ele>
        <time>2011-11-30T11:40:08Z</time>
      </trkpt>
      <trkpt lat="45.31797" lon="5.92169">
        <ele>269</ele>
        <time>2011-11-30T11:40:11Z</time>
      </trkpt>
      <trkpt lat="45.31795" lon="5.92152">
        <ele>266</ele>
        <time>2011-11-30T11:40:14Z</time>
      </trkpt>
      <trkpt lat="45.31793" lon="5.92135">
        <ele>271</ele>
        <time>2011-11-30T11:40:17Z</time>
      </trkpt>
      <trkpt lat="45.31789" lon="5.9212">
        <ele>269</ele>
        <time>2011-11-30T11:40:20Z</time>
      </trkpt>
      <trkpt lat="45.31787" lon="5.92104">
        <ele>275</ele>
        <time>2011-11-30T11:40:23Z</time>
      </trkpt>
      <trkpt lat="45.31787" lon="5.92087">
        <ele>270</ele>
        <time>2011-11-30T11:40:26Z</time>
      </trkpt>
      <trkpt lat="45.31783" lon="5.92069">
        <ele>275</ele>
        <time>2011-11-30T11:40:29Z</time>
      </trkpt>
      <trkpt lat="45.31781" lon="5.92055">
        <ele>273</ele>
        <time>2011-11-30T11:40:31Z</time>
      </trkpt>
      <trkpt lat="45.31778" lon="5.92042">
        <ele>273</ele>
        <time>2011-11-30T11:40:33Z</time>
      </trkpt>
      <trkpt lat="45.31773" lon="5.92027">
        <ele>271</ele>
        <time>2011-11-30T11:40:36Z</time>
      </trkpt>
      <trkpt lat="45.3177" lon="5.9201">
        <ele>272</ele>
        <time>2011-11-30T11:40:39Z</time>
      </trkpt>
      <trkpt lat="45.31766" lon="5.91996">
        <ele>272</ele>
        <time>2011-11-30T11:40:42Z</time>
      </trkpt>
      <trkpt lat="45.31762" lon="5.91981">
        <ele>276</ele>
        <time>2011-11-30T11:40:45Z</time>
      </trkpt>
      <trkpt lat="45.31757" lon="5.91964">
        <ele>275</ele>
        <time>2011-11-30T11:40:49Z</time>
      </trkpt>
      <trkpt lat="45.31751" lon="5.91951">
        <ele>276</ele>
        <time>2011-11-30T11:40:52Z</time>
      </trkpt>
      <trkpt lat="45.31745" lon="5.91939">
        <ele>275</ele>
        <time>2011-11-30T11:40:55Z</time>
      </trkpt>
      <trkpt lat="45.31739" lon="5.91924">
        <ele>277</ele>
        <time>2011-11-30T11:40:58Z</time>
      </trkpt>
      <trkpt lat="45.31733" lon="5.91908">
        <ele>277</ele>
        <time>2011-11-30T11:41:02Z</time>
      </trkpt>
      <trkpt lat="45.31723" lon="5.91896">
        <ele>280</ele>
        <time>2011-11-30T11:41:05Z</time>
      </trkpt>
      <trkpt lat="45.31706" lon="5.9188">
        <ele>278</ele>
        <time>2011-11-30T11:41:10Z</time>
      </trkpt>
      <trkpt lat="45.31697" lon="5.91862">
        <ele>279</ele>
        <time>2011-11-30T11:41:14Z</time>
      </trkpt>
      <trkpt lat="45.31703" lon="5.9185">
        <ele>280</ele>
        <time>2011-11-30T11:41:16Z</time>
      </trkpt>
      <trkpt lat="45.3171" lon="5.9184">
        <ele>284</ele>
        <time>2011-11-30T11:41:19Z</time>
      </trkpt>
      <trkpt lat="45.31716" lon="5.91829">
        <ele>283</ele>
        <time>2011-11-30T11:41:21Z</time>
      </trkpt>
      <trkpt lat="45.31729" lon="5.91806">
        <ele>274</ele>
        <time>2011-11-30T11:41:26Z</time>
      </trkpt>
      <trkpt lat="45.31737" lon="5.91797">
        <ele>275</ele>
        <time>2011-11-30T11:41:29Z</time>
      </trkpt>
      <trkpt lat="45.31745" lon="5.91781">
        <ele>280</ele>
        <time>2011-11-30T11:41:34Z</time>
      </trkpt>
      <trkpt lat="45.31761" lon="5.9175">
        <ele>281</ele>
        <time>2011-11-30T11:41:42Z</time>
      </trkpt>
      <trkpt lat="45.31766" lon="5.91738">
        <ele>284</ele>
        <time>2011-11-30T11:41:45Z</time>
      </trkpt>
      <trkpt lat="45.31769" lon="5.91724">
        <ele>281</ele>
        <time>2011-11-30T11:41:48Z</time>
      </trkpt>
      <trkpt lat="45.31774" lon="5.91711">
        <ele>293</ele>
        <time>2011-11-30T11:41:51Z</time>
      </trkpt>
      <trkpt lat="45.31789" lon="5.91691">
        <ele>279</ele>
        <time>2011-11-30T11:41:57Z</time>
      </trkpt>
      <trkpt lat="45.318" lon="5.91675">
        <ele>279</ele>
        <time>2011-11-30T11:42:00Z</time>
      </trkpt>
      <trkpt lat="45.31805" lon="5.91663">
        <ele>274</ele>
        <time>2011-11-30T11:42:02Z</time>
      </trkpt>
      <trkpt lat="45.31822" lon="5.91639">
        <ele>277</ele>
        <time>2011-11-30T11:42:08Z</time>
      </trkpt>
      <trkpt lat="45.31841" lon="5.91598">
        <ele>242</ele>
        <time>2011-11-30T11:42:23Z</time>
      </trkpt>
      <trkpt lat="45.31851" lon="5.91589">
        <ele>250</ele>
        <time>2011-11-30T11:42:27Z</time>
      </trkpt>
      <trkpt lat="45.3186" lon="5.91589">
        <ele>251</ele>
        <time>2011-11-30T11:42:30Z</time>
      </trkpt>
      <trkpt lat="45.3187" lon="5.91591">
        <ele>246</ele>
        <time>2011-11-30T11:42:33Z</time>
      </trkpt>
      <trkpt lat="45.31897" lon="5.91611">
        <ele>249</ele>
        <time>2011-11-30T11:42:42Z</time>
      </trkpt>
      <trkpt lat="45.31912" lon="5.91632">
        <ele>260</ele>
        <time>2011-11-30T11:42:49Z</time>
      </trkpt>
      <trkpt lat="45.31918" lon="5.91645">
        <ele>257</ele>
        <time>2011-11-30T11:42:52Z</time>
      </trkpt>
      <trkpt lat="45.3193" lon="5.91667">
        <ele>266</ele>
        <time>2011-11-30T11:42:59Z</time>
      </trkpt>
      <trkpt lat="45.31935" lon="5.91679">
        <ele>264</ele>
        <time>2011-11-30T11:43:02Z</time>
      </trkpt>
      <trkpt lat="45.31936" lon="5.91694">
        <ele>268</ele>
        <time>2011-11-30T11:43:05Z</time>
      </trkpt>
      <trkpt lat="45.31936" lon="5.91716">
        <ele>266</ele>
        <time>2011-11-30T11:43:10Z</time>
      </trkpt>
      <trkpt lat="45.31917" lon="5.91779">
        <ele>292</ele>
        <time>2011-11-30T11:43:26Z</time>
      </trkpt>
      <trkpt lat="45.31925" lon="5.91791">
        <ele>289</ele>
        <time>2011-11-30T11:43:31Z</time>
      </trkpt>
      <trkpt lat="45.31933" lon="5.91799">
        <ele>288</ele>
        <time>2011-11-30T11:43:35Z</time>
      </trkpt>
      <trkpt lat="45.31951" lon="5.91815">
        <ele>295</ele>
        <time>2011-11-30T11:43:42Z</time>
      </trkpt>
      <trkpt lat="45.31959" lon="5.91822">
        <ele>295</ele>
        <time>2011-11-30T11:43:45Z</time>
      </trkpt>
      <trkpt lat="45.31969" lon="5.91827">
        <ele>299</ele>
        <time>2011-11-30T11:43:48Z</time>
      </trkpt>
      <trkpt lat="45.31984" lon="5.91848">
        <ele>304</ele>
        <time>2011-11-30T11:43:56Z</time>
      </trkpt>
      <trkpt lat="45.31984" lon="5.91865">
        <ele>309</ele>
        <time>2011-11-30T11:44:01Z</time>
      </trkpt>
      <trkpt lat="45.31995" lon="5.91902">
        <ele>311</ele>
        <time>2011-11-30T11:44:13Z</time>
      </trkpt>
      <trkpt lat="45.31998" lon="5.91918">
        <ele>320</ele>
        <time>2011-11-30T11:44:17Z</time>
      </trkpt>
      <trkpt lat="45.32004" lon="5.91933">
        <ele>320</ele>
        <time>2011-11-30T11:44:21Z</time>
      </trkpt>
      <trkpt lat="45.32015" lon="5.9196">
        <ele>323</ele>
        <time>2011-11-30T11:44:29Z</time>
      </trkpt>
      <trkpt lat="45.32021" lon="5.91972">
        <ele>339</ele>
        <time>2011-11-30T11:44:33Z</time>
      </trkpt>
      <trkpt lat="45.32026" lon="5.91983">
        <ele>334</ele>
        <time>2011-11-30T11:44:37Z</time>
      </trkpt>
      <trkpt lat="45.32033" lon="5.91993">
        <ele>333</ele>
        <time>2011-11-30T11:44:41Z</time>
      </trkpt>
      <trkpt lat="45.3204" lon="5.92003">
        <ele>334</ele>
        <time>2011-11-30T11:44:45Z</time>
      </trkpt>
      <trkpt lat="45.32047" lon="5.92013">
        <ele>337</ele>
        <time>2011-11-30T11:44:51Z</time>
      </trkpt>
      <trkpt lat="45.32057" lon="5.92022">
        <ele>337</ele>
        <time>2011-11-30T11:44:57Z</time>
      </trkpt>
      <trkpt lat="45.32067" lon="5.92033">
        <ele>344</ele>
        <time>2011-11-30T11:45:01Z</time>
      </trkpt>
      <trkpt lat="45.32075" lon="5.92042">
        <ele>345</ele>
        <time>2011-11-30T11:45:04Z</time>
      </trkpt>
      <trkpt lat="45.32082" lon="5.92053">
        <ele>342</ele>
        <time>2011-11-30T11:45:07Z</time>
      </trkpt>
      <trkpt lat="45.32088" lon="5.92064">
        <ele>346</ele>
        <time>2011-11-30T11:45:10Z</time>
      </trkpt>
      <trkpt lat="45.32099" lon="5.92092">
        <ele>340</ele>
        <time>2011-11-30T11:45:18Z</time>
      </trkpt>
      <trkpt lat="45.32116" lon="5.92126">
        <ele>348</ele>
        <time>2011-11-30T11:45:30Z</time>
      </trkpt>
      <trkpt lat="45.32121" lon="5.92137">
        <ele>347</ele>
        <time>2011-11-30T11:45:35Z</time>
      </trkpt>
      <trkpt lat="45.3213" lon="5.92144">
        <ele>345</ele>
        <time>2011-11-30T11:45:40Z</time>
      </trkpt>
      <trkpt lat="45.32146" lon="5.92156">
        <ele>352</ele>
        <time>2011-11-30T11:45:50Z</time>
      </trkpt>
      <trkpt lat="45.32155" lon="5.92165">
        <ele>351</ele>
        <time>2011-11-30T11:45:55Z</time>
      </trkpt>
      <trkpt lat="45.32181" lon="5.92191">
        <ele>364</ele>
        <time>2011-11-30T11:46:04Z</time>
      </trkpt>
      <trkpt lat="45.32172" lon="5.92186">
        <ele>364</ele>
        <time>2011-11-30T11:46:18Z</time>
      </trkpt>
      <trkpt lat="45.32163" lon="5.92181">
        <ele>362</ele>
        <time>2011-11-30T11:46:21Z</time>
      </trkpt>
      <trkpt lat="45.32151" lon="5.92174">
        <ele>364</ele>
        <time>2011-11-30T11:46:25Z</time>
      </trkpt>
      <trkpt lat="45.32143" lon="5.92166">
        <ele>363</ele>
        <time>2011-11-30T11:46:28Z</time>
      </trkpt>
      <trkpt lat="45.32133" lon="5.92155">
        <ele>364</ele>
        <time>2011-11-30T11:46:31Z</time>
      </trkpt>
      <trkpt lat="45.32125" lon="5.9213">
        <ele>357</ele>
        <time>2011-11-30T11:46:35Z</time>
      </trkpt>
      <trkpt lat="45.32125" lon="5.92117">
        <ele>355</ele>
        <time>2011-11-30T11:46:37Z</time>
      </trkpt>
      <trkpt lat="45.32126" lon="5.921">
        <ele>354</ele>
        <time>2011-11-30T11:46:40Z</time>
      </trkpt>
      <trkpt lat="45.32129" lon="5.9207">
        <ele>358</ele>
        <time>2011-11-30T11:46:47Z</time>
      </trkpt>
      <trkpt lat="45.32132" lon="5.92058">
        <ele>359</ele>
        <time>2011-11-30T11:46:50Z</time>
      </trkpt>
      <trkpt lat="45.32135" lon="5.92044">
        <ele>356</ele>
        <time>2011-11-30T11:46:54Z</time>
      </trkpt>
      <trkpt lat="45.32139" lon="5.92029">
        <ele>366</ele>
        <time>2011-11-30T11:46:58Z</time>
      </trkpt>
      <trkpt lat="45.32145" lon="5.92019">
        <ele>361</ele>
        <time>2011-11-30T11:47:01Z</time>
      </trkpt>
      <trkpt lat="45.32156" lon="5.92021">
        <ele>366</ele>
        <time>2011-11-30T11:47:08Z</time>
      </trkpt>
      <trkpt lat="45.32174" lon="5.92038">
        <ele>369</ele>
        <time>2011-11-30T11:47:14Z</time>
      </trkpt>
      <trkpt lat="45.32182" lon="5.92045">
        <ele>370</ele>
        <time>2011-11-30T11:47:17Z</time>
      </trkpt>
      <trkpt lat="45.32191" lon="5.92051">
        <ele>372</ele>
        <time>2011-11-30T11:47:20Z</time>
      </trkpt>
      <trkpt lat="45.322" lon="5.92059">
        <ele>370</ele>
        <time>2011-11-30T11:47:24Z</time>
      </trkpt>
      <trkpt lat="45.32226" lon="5.92072">
        <ele>386</ele>
        <time>2011-11-30T11:47:42Z</time>
      </trkpt>
      <trkpt lat="45.32237" lon="5.92072">
        <ele>386</ele>
        <time>2011-11-30T11:47:46Z</time>
      </trkpt>
      <trkpt lat="45.32248" lon="5.92077">
        <ele>386</ele>
        <time>2011-11-30T11:47:50Z</time>
      </trkpt>
      <trkpt lat="45.32258" lon="5.92082">
        <ele>384</ele>
        <time>2011-11-30T11:47:53Z</time>
      </trkpt>
      <trkpt lat="45.32267" lon="5.92089">
        <ele>388</ele>
        <time>2011-11-30T11:47:56Z</time>
      </trkpt>
      <trkpt lat="45.32285" lon="5.92107">
        <ele>386</ele>
        <time>2011-11-30T11:48:03Z</time>
      </trkpt>
      <trkpt lat="45.32294" lon="5.92117">
        <ele>389</ele>
        <time>2011-11-30T11:48:07Z</time>
      </trkpt>
      <trkpt lat="45.323" lon="5.92128">
        <ele>385</ele>
        <time>2011-11-30T11:48:10Z</time>
      </trkpt>
      <trkpt lat="45.32307" lon="5.92138">
        <ele>385</ele>
        <time>2011-11-30T11:48:13Z</time>
      </trkpt>
      <trkpt lat="45.32371" lon="5.92192">
        <ele>410</ele>
        <time>2011-11-30T11:48:47Z</time>
      </trkpt>
      <trkpt lat="45.32382" lon="5.92196">
        <ele>412</ele>
        <time>2011-11-30T11:48:51Z</time>
      </trkpt>
      <trkpt lat="45.32392" lon="5.92198">
        <ele>401</ele>
        <time>2011-11-30T11:48:57Z</time>
      </trkpt>
      <trkpt lat="45.32401" lon="5.922">
        <ele>404</ele>
        <time>2011-11-30T11:49:01Z</time>
      </trkpt>
      <trkpt lat="45.3241" lon="5.92198">
        <ele>401</ele>
        <time>2011-11-30T11:49:05Z</time>
      </trkpt>
      <trkpt lat="45.3242" lon="5.92195">
        <ele>406</ele>
        <time>2011-11-30T11:49:09Z</time>
      </trkpt>
      <trkpt lat="45.32428" lon="5.92201">
        <ele>407</ele>
        <time>2011-11-30T11:49:16Z</time>
      </trkpt>
      <trkpt lat="45.32437" lon="5.92205">
        <ele>397</ele>
        <time>2011-11-30T11:49:31Z</time>
      </trkpt>
      <trkpt lat="45.32434" lon="5.92217">
        <ele>410</ele>
        <time>2011-11-30T11:50:21Z</time>
      </trkpt>
      <trkpt lat="45.32434" lon="5.92219">
        <ele>403</ele>
        <time>2011-11-30T11:52:21Z</time>
      </trkpt>
      <trkpt lat="45.32447" lon="5.92218">
        <ele>385</ele>
        <time>2011-11-30T11:53:06Z</time>
      </trkpt>
      <trkpt lat="45.32453" lon="5.92218">
        <ele>393</ele>
        <time>2011-11-30T11:53:12Z</time>
      </trkpt>
      <trkpt lat="45.32462" lon="5.92218">
        <ele>393</ele>
        <time>2011-11-30T11:53:17Z</time>
      </trkpt>
      <trkpt lat="45.32487" lon="5.9222">
        <ele>408</ele>
        <time>2011-11-30T11:53:30Z</time>
      </trkpt>
      <trkpt lat="45.32497" lon="5.92223">
        <ele>408</ele>
        <time>2011-11-30T11:53:36Z</time>
      </trkpt>
      <trkpt lat="45.32507" lon="5.92227">
        <ele>416</ele>
        <time>2011-11-30T11:53:40Z</time>
      </trkpt>
      <trkpt lat="45.32517" lon="5.92233">
        <ele>411</ele>
        <time>2011-11-30T11:53:44Z</time>
      </trkpt>
      <trkpt lat="45.32525" lon="5.92242">
        <ele>415</ele>
        <time>2011-11-30T11:53:47Z</time>
      </trkpt>
      <trkpt lat="45.32535" lon="5.92251">
        <ele>408</ele>
        <time>2011-11-30T11:53:50Z</time>
      </trkpt>
      <trkpt lat="45.32543" lon="5.92258">
        <ele>408</ele>
        <time>2011-11-30T11:53:53Z</time>
      </trkpt>
      <trkpt lat="45.32553" lon="5.92265">
        <ele>410</ele>
        <time>2011-11-30T11:53:57Z</time>
      </trkpt>
      <trkpt lat="45.32564" lon="5.92264">
        <ele>411</ele>
        <time>2011-11-30T11:54:01Z</time>
      </trkpt>
      <trkpt lat="45.32574" lon="5.92257">
        <ele>412</ele>
        <time>2011-11-30T11:54:05Z</time>
      </trkpt>
      <trkpt lat="45.32578" lon="5.92245">
        <ele>415</ele>
        <time>2011-11-30T11:54:09Z</time>
      </trkpt>
      <trkpt lat="45.32576" lon="5.92231">
        <ele>413</ele>
        <time>2011-11-30T11:54:13Z</time>
      </trkpt>
      <trkpt lat="45.32572" lon="5.92218">
        <ele>419</ele>
        <time>2011-11-30T11:54:17Z</time>
      </trkpt>
      <trkpt lat="45.32564" lon="5.92206">
        <ele>420</ele>
        <time>2011-11-30T11:54:21Z</time>
      </trkpt>
      <trkpt lat="45.3256" lon="5.92197">
        <ele>419</ele>
        <time>2011-11-30T11:54:24Z</time>
      </trkpt>
      <trkpt lat="45.32554" lon="5.92186">
        <ele>422</ele>
        <time>2011-11-30T11:54:28Z</time>
      </trkpt>
      <trkpt lat="45.32552" lon="5.92179">
        <ele>422</ele>
        <time>2011-11-30T11:54:30Z</time>
      </trkpt>
      <trkpt lat="45.3255" lon="5.92172">
        <ele>421</ele>
        <time>2011-11-30T11:54:32Z</time>
      </trkpt>
      <trkpt lat="45.3253" lon="5.92125">
        <ele>431</ele>
        <time>2011-11-30T11:54:47Z</time>
      </trkpt>
      <trkpt lat="45.32525" lon="5.9211">
        <ele>430</ele>
        <time>2011-11-30T11:54:51Z</time>
      </trkpt>
      <trkpt lat="45.32521" lon="5.92095">
        <ele>430</ele>
        <time>2011-11-30T11:54:55Z</time>
      </trkpt>
      <trkpt lat="45.3251" lon="5.92051">
        <ele>435</ele>
        <time>2011-11-30T11:55:06Z</time>
      </trkpt>
      <trkpt lat="45.32503" lon="5.92038">
        <ele>434</ele>
        <time>2011-11-30T11:55:10Z</time>
      </trkpt>
      <trkpt lat="45.32498" lon="5.92027">
        <ele>433</ele>
        <time>2011-11-30T11:55:13Z</time>
      </trkpt>
      <trkpt lat="45.3249" lon="5.92017">
        <ele>436</ele>
        <time>2011-11-30T11:55:17Z</time>
      </trkpt>
      <trkpt lat="45.32482" lon="5.92008">
        <ele>434</ele>
        <time>2011-11-30T11:55:21Z</time>
      </trkpt>
      <trkpt lat="45.32474" lon="5.91995">
        <ele>439</ele>
        <time>2011-11-30T11:55:25Z</time>
      </trkpt>
      <trkpt lat="45.32466" lon="5.91986">
        <ele>434</ele>
        <time>2011-11-30T11:55:29Z</time>
      </trkpt>
      <trkpt lat="45.32448" lon="5.91969">
        <ele>441</ele>
        <time>2011-11-30T11:55:37Z</time>
      </trkpt>
      <trkpt lat="45.32439" lon="5.91965">
        <ele>441</ele>
        <time>2011-11-30T11:55:41Z</time>
      </trkpt>
      <trkpt lat="45.32428" lon="5.91962">
        <ele>446</ele>
        <time>2011-11-30T11:55:45Z</time>
      </trkpt>
      <trkpt lat="45.32417" lon="5.91958">
        <ele>447</ele>
        <time>2011-11-30T11:55:49Z</time>
      </trkpt>
      <trkpt lat="45.32409" lon="5.91948">
        <ele>438</ele>
        <time>2011-11-30T11:55:53Z</time>
      </trkpt>
      <trkpt lat="45.32409" lon="5.91939">
        <ele>436</ele>
        <time>2011-11-30T11:55:56Z</time>
      </trkpt>
      <trkpt lat="45.32415" lon="5.91928">
        <ele>432</ele>
        <time>2011-11-30T11:56:00Z</time>
      </trkpt>
      <trkpt lat="45.32442" lon="5.91908">
        <ele>449</ele>
        <time>2011-11-30T11:56:11Z</time>
      </trkpt>
      <trkpt lat="45.32453" lon="5.91907">
        <ele>462</ele>
        <time>2011-11-30T11:56:16Z</time>
      </trkpt>
      <trkpt lat="45.32463" lon="5.9191">
        <ele>455</ele>
        <time>2011-11-30T11:56:20Z</time>
      </trkpt>
      <trkpt lat="45.32472" lon="5.91913">
        <ele>460</ele>
        <time>2011-11-30T11:56:24Z</time>
      </trkpt>
      <trkpt lat="45.32493" lon="5.91917">
        <ele>459</ele>
        <time>2011-11-30T11:56:32Z</time>
      </trkpt>
      <trkpt lat="45.32504" lon="5.91919">
        <ele>456</ele>
        <time>2011-11-30T11:56:36Z</time>
      </trkpt>
      <trkpt lat="45.32524" lon="5.91922">
        <ele>463</ele>
        <time>2011-11-30T11:56:44Z</time>
      </trkpt>
      <trkpt lat="45.32533" lon="5.91922">
        <ele>462</ele>
        <time>2011-11-30T11:56:48Z</time>
      </trkpt>
      <trkpt lat="45.32552" lon="5.91925">
        <ele>457</ele>
        <time>2011-11-30T11:56:55Z</time>
      </trkpt>
      <trkpt lat="45.32574" lon="5.9193">
        <ele>464</ele>
        <time>2011-11-30T11:57:02Z</time>
      </trkpt>
      <trkpt lat="45.32584" lon="5.91938">
        <ele>464</ele>
        <time>2011-11-30T11:57:05Z</time>
      </trkpt>
      <trkpt lat="45.32605" lon="5.91937">
        <ele>473</ele>
        <time>2011-11-30T11:57:12Z</time>
      </trkpt>
      <trkpt lat="45.32616" lon="5.91935">
        <ele>470</ele>
        <time>2011-11-30T11:57:17Z</time>
      </trkpt>
      <trkpt lat="45.32636" lon="5.91941">
        <ele>485</ele>
        <time>2011-11-30T11:57:26Z</time>
      </trkpt>
      <trkpt lat="45.32657" lon="5.91942">
        <ele>478</ele>
        <time>2011-11-30T11:57:34Z</time>
      </trkpt>
      <trkpt lat="45.32669" lon="5.9194">
        <ele>478</ele>
        <time>2011-11-30T11:57:39Z</time>
      </trkpt>
      <trkpt lat="45.32679" lon="5.91942">
        <ele>475</ele>
        <time>2011-11-30T11:57:43Z</time>
      </trkpt>
      <trkpt lat="45.32689" lon="5.91944">
        <ele>475</ele>
        <time>2011-11-30T11:57:47Z</time>
      </trkpt>
      <trkpt lat="45.32701" lon="5.91946">
        <ele>469</ele>
        <time>2011-11-30T11:57:51Z</time>
      </trkpt>
      <trkpt lat="45.32712" lon="5.91949">
        <ele>468</ele>
        <time>2011-11-30T11:57:54Z</time>
      </trkpt>
      <trkpt lat="45.32734" lon="5.91956">
        <ele>475</ele>
        <time>2011-11-30T11:58:00Z</time>
      </trkpt>
      <trkpt lat="45.32745" lon="5.91959">
        <ele>469</ele>
        <time>2011-11-30T11:58:03Z</time>
      </trkpt>
      <trkpt lat="45.32756" lon="5.91964">
        <ele>470</ele>
        <time>2011-11-30T11:58:06Z</time>
      </trkpt>
      <trkpt lat="45.32776" lon="5.91976">
        <ele>485</ele>
        <time>2011-11-30T11:58:14Z</time>
      </trkpt>
      <trkpt lat="45.32785" lon="5.91983">
        <ele>486</ele>
        <time>2011-11-30T11:58:17Z</time>
      </trkpt>
      <trkpt lat="45.32795" lon="5.91991">
        <ele>487</ele>
        <time>2011-11-30T11:58:21Z</time>
      </trkpt>
      <trkpt lat="45.3281" lon="5.92007">
        <ele>493</ele>
        <time>2011-11-30T11:58:27Z</time>
      </trkpt>
      <trkpt lat="45.3282" lon="5.92017">
        <ele>488</ele>
        <time>2011-11-30T11:58:31Z</time>
      </trkpt>
      <trkpt lat="45.32869" lon="5.9205">
        <ele>504</ele>
        <time>2011-11-30T11:58:50Z</time>
      </trkpt>
      <trkpt lat="45.32878" lon="5.92055">
        <ele>500</ele>
        <time>2011-11-30T11:58:53Z</time>
      </trkpt>
      <trkpt lat="45.32904" lon="5.92077">
        <ele>507</ele>
        <time>2011-11-30T11:59:03Z</time>
      </trkpt>
      <trkpt lat="45.32913" lon="5.92086">
        <ele>506</ele>
        <time>2011-11-30T11:59:07Z</time>
      </trkpt>
      <trkpt lat="45.32923" lon="5.92093">
        <ele>506</ele>
        <time>2011-11-30T11:59:11Z</time>
      </trkpt>
      <trkpt lat="45.32928" lon="5.92106">
        <ele>504</ele>
        <time>2011-11-30T11:59:15Z</time>
      </trkpt>
      <trkpt lat="45.32936" lon="5.92112">
        <ele>508</ele>
        <time>2011-11-30T11:59:19Z</time>
      </trkpt>
      <trkpt lat="45.32946" lon="5.92119">
        <ele>508</ele>
        <time>2011-11-30T11:59:24Z</time>
      </trkpt>
      <trkpt lat="45.32968" lon="5.92118">
        <ele>513</ele>
        <time>2011-11-30T11:59:32Z</time>
      </trkpt>
      <trkpt lat="45.32976" lon="5.92112">
        <ele>503</ele>
        <time>2011-11-30T11:59:37Z</time>
      </trkpt>
      <trkpt lat="45.33007" lon="5.92074">
        <ele>520</ele>
        <time>2011-11-30T11:59:57Z</time>
      </trkpt>
      <trkpt lat="45.33016" lon="5.92069">
        <ele>515</ele>
        <time>2011-11-30T12:00:01Z</time>
      </trkpt>
      <trkpt lat="45.33033" lon="5.92054">
        <ele>523</ele>
        <time>2011-11-30T12:00:09Z</time>
      </trkpt>
      <trkpt lat="45.33016" lon="5.92047">
        <ele>513</ele>
        <time>2011-11-30T12:00:25Z</time>
      </trkpt>
      <trkpt lat="45.32996" lon="5.92051">
        <ele>520</ele>
        <time>2011-11-30T12:00:36Z</time>
      </trkpt>
      <trkpt lat="45.32982" lon="5.9207">
        <ele>533</ele>
        <time>2011-11-30T12:00:43Z</time>
      </trkpt>
      <trkpt lat="45.32962" lon="5.92083">
        <ele>529</ele>
        <time>2011-11-30T12:00:50Z</time>
      </trkpt>
      <trkpt lat="45.32952" lon="5.92077">
        <ele>528</ele>
        <time>2011-11-30T12:00:54Z</time>
      </trkpt>
      <trkpt lat="45.32944" lon="5.92065">
        <ele>527</ele>
        <time>2011-11-30T12:00:58Z</time>
      </trkpt>
      <trkpt lat="45.3293" lon="5.92043">
        <ele>535</ele>
        <time>2011-11-30T12:01:06Z</time>
      </trkpt>
      <trkpt lat="45.32926" lon="5.92038">
        <ele>533</ele>
        <time>2011-11-30T12:01:08Z</time>
      </trkpt>
      <trkpt lat="45.32917" lon="5.92015">
        <ele>539</ele>
        <time>2011-11-30T12:01:14Z</time>
      </trkpt>
      <trkpt lat="45.32911" lon="5.92002">
        <ele>537</ele>
        <time>2011-11-30T12:01:18Z</time>
      </trkpt>
      <trkpt lat="45.32904" lon="5.91991">
        <ele>540</ele>
        <time>2011-11-30T12:01:22Z</time>
      </trkpt>
      <trkpt lat="45.32898" lon="5.9198">
        <ele>538</ele>
        <time>2011-11-30T12:01:26Z</time>
      </trkpt>
      <trkpt lat="45.32892" lon="5.9197">
        <ele>538</ele>
        <time>2011-11-30T12:01:30Z</time>
      </trkpt>
      <trkpt lat="45.32879" lon="5.91946">
        <ele>543</ele>
        <time>2011-11-30T12:01:39Z</time>
      </trkpt>
      <trkpt lat="45.32869" lon="5.91921">
        <ele>539</ele>
        <time>2011-11-30T12:01:47Z</time>
      </trkpt>
      <trkpt lat="45.32864" lon="5.91908">
        <ele>542</ele>
        <time>2011-11-30T12:01:51Z</time>
      </trkpt>
      <trkpt lat="45.32857" lon="5.91893">
        <ele>541</ele>
        <time>2011-11-30T12:01:55Z</time>
      </trkpt>
      <trkpt lat="45.32838" lon="5.91876">
        <ele>549</ele>
        <time>2011-11-30T12:02:03Z</time>
      </trkpt>
      <trkpt lat="45.32831" lon="5.91869">
        <ele>549</ele>
        <time>2011-11-30T12:02:06Z</time>
      </trkpt>
      <trkpt lat="45.32822" lon="5.9186">
        <ele>546</ele>
        <time>2011-11-30T12:02:09Z</time>
      </trkpt>
      <trkpt lat="45.32804" lon="5.91845">
        <ele>554</ele>
        <time>2011-11-30T12:02:17Z</time>
      </trkpt>
      <trkpt lat="45.32792" lon="5.91835">
        <ele>554</ele>
        <time>2011-11-30T12:02:22Z</time>
      </trkpt>
      <trkpt lat="45.32785" lon="5.91819">
        <ele>551</ele>
        <time>2011-11-30T12:02:28Z</time>
      </trkpt>
      <trkpt lat="45.32765" lon="5.91789">
        <ele>566</ele>
        <time>2011-11-30T12:02:39Z</time>
      </trkpt>
      <trkpt lat="45.32748" lon="5.91776">
        <ele>560</ele>
        <time>2011-11-30T12:02:47Z</time>
      </trkpt>
      <trkpt lat="45.32738" lon="5.91772">
        <ele>562</ele>
        <time>2011-11-30T12:02:52Z</time>
      </trkpt>
      <trkpt lat="45.32728" lon="5.91768">
        <ele>562</ele>
        <time>2011-11-30T12:02:56Z</time>
      </trkpt>
      <trkpt lat="45.32714" lon="5.91761">
        <ele>564</ele>
        <time>2011-11-30T12:03:02Z</time>
      </trkpt>
      <trkpt lat="45.32706" lon="5.91755">
        <ele>562</ele>
        <time>2011-11-30T12:03:06Z</time>
      </trkpt>
      <trkpt lat="45.32696" lon="5.91749">
        <ele>567</ele>
        <time>2011-11-30T12:03:10Z</time>
      </trkpt>
      <trkpt lat="45.32687" lon="5.91743">
        <ele>567</ele>
        <time>2011-11-30T12:03:14Z</time>
      </trkpt>
      <trkpt lat="45.32677" lon="5.91735">
        <ele>572</ele>
        <time>2011-11-30T12:03:19Z</time>
      </trkpt>
      <trkpt lat="45.32667" lon="5.91728">
        <ele>565</ele>
        <time>2011-11-30T12:03:24Z</time>
      </trkpt>
      <trkpt lat="45.3264" lon="5.9171">
        <ele>573</ele>
        <time>2011-11-30T12:03:36Z</time>
      </trkpt>
      <trkpt lat="45.32633" lon="5.91706">
        <ele>573</ele>
        <time>2011-11-30T12:03:39Z</time>
      </trkpt>
      <trkpt lat="45.32612" lon="5.91698">
        <ele>575</ele>
        <time>2011-11-30T12:03:47Z</time>
      </trkpt>
      <trkpt lat="45.32595" lon="5.91679">
        <ele>587</ele>
        <time>2011-11-30T12:03:55Z</time>
      </trkpt>
      <trkpt lat="45.32587" lon="5.91671">
        <ele>584</ele>
        <time>2011-11-30T12:03:59Z</time>
      </trkpt>
      <trkpt lat="45.32577" lon="5.91663">
        <ele>587</ele>
        <time>2011-11-30T12:04:03Z</time>
      </trkpt>
      <trkpt lat="45.32571" lon="5.9166">
        <ele>583</ele>
        <time>2011-11-30T12:04:05Z</time>
      </trkpt>
      <trkpt lat="45.32544" lon="5.91634">
        <ele>591</ele>
        <time>2011-11-30T12:04:17Z</time>
      </trkpt>
      <trkpt lat="45.3254" lon="5.91628">
        <ele>588</ele>
        <time>2011-11-30T12:04:19Z</time>
      </trkpt>
      <trkpt lat="45.32532" lon="5.91618">
        <ele>593</ele>
        <time>2011-11-30T12:04:23Z</time>
      </trkpt>
      <trkpt lat="45.32525" lon="5.91605">
        <ele>590</ele>
        <time>2011-11-30T12:04:28Z</time>
      </trkpt>
      <trkpt lat="45.32516" lon="5.91593">
        <ele>594</ele>
        <time>2011-11-30T12:04:32Z</time>
      </trkpt>
      <trkpt lat="45.32508" lon="5.91581">
        <ele>586</ele>
        <time>2011-11-30T12:04:35Z</time>
      </trkpt>
      <trkpt lat="45.32483" lon="5.91547">
        <ele>596</ele>
        <time>2011-11-30T12:04:47Z</time>
      </trkpt>
      <trkpt lat="45.32474" lon="5.91541">
        <ele>595</ele>
        <time>2011-11-30T12:04:50Z</time>
      </trkpt>
      <trkpt lat="45.32469" lon="5.91529">
        <ele>592</ele>
        <time>2011-11-30T12:04:54Z</time>
      </trkpt>
      <trkpt lat="45.32476" lon="5.91521">
        <ele>595</ele>
        <time>2011-11-30T12:04:58Z</time>
      </trkpt>
      <trkpt lat="45.32486" lon="5.91527">
        <ele>595</ele>
        <time>2011-11-30T12:05:02Z</time>
      </trkpt>
      <trkpt lat="45.32495" lon="5.91531">
        <ele>594</ele>
        <time>2011-11-30T12:05:05Z</time>
      </trkpt>
      <trkpt lat="45.32505" lon="5.91534">
        <ele>604</ele>
        <time>2011-11-30T12:05:10Z</time>
      </trkpt>
      <trkpt lat="45.32514" lon="5.91538">
        <ele>594</ele>
        <time>2011-11-30T12:05:15Z</time>
      </trkpt>
      <trkpt lat="45.32562" lon="5.91584">
        <ele>621</ele>
        <time>2011-11-30T12:05:41Z</time>
      </trkpt>
      <trkpt lat="45.32571" lon="5.91592">
        <ele>617</ele>
        <time>2011-11-30T12:05:45Z</time>
      </trkpt>
      <trkpt lat="45.3258" lon="5.91598">
        <ele>616</ele>
        <time>2011-11-30T12:05:49Z</time>
      </trkpt>
      <trkpt lat="45.32599" lon="5.91609">
        <ele>626</ele>
        <time>2011-11-30T12:05:57Z</time>
      </trkpt>
      <trkpt lat="45.32609" lon="5.91616">
        <ele>619</ele>
        <time>2011-11-30T12:06:01Z</time>
      </trkpt>
      <trkpt lat="45.32644" lon="5.91641">
        <ele>628</ele>
        <time>2011-11-30T12:06:16Z</time>
      </trkpt>
      <trkpt lat="45.32655" lon="5.91642">
        <ele>626</ele>
        <time>2011-11-30T12:06:20Z</time>
      </trkpt>
      <trkpt lat="45.32665" lon="5.91646">
        <ele>632</ele>
        <time>2011-11-30T12:06:24Z</time>
      </trkpt>
      <trkpt lat="45.32684" lon="5.91649">
        <ele>631</ele>
        <time>2011-11-30T12:06:32Z</time>
      </trkpt>
      <trkpt lat="45.32694" lon="5.91648">
        <ele>635</ele>
        <time>2011-11-30T12:06:36Z</time>
      </trkpt>
      <trkpt lat="45.32704" lon="5.91647">
        <ele>634</ele>
        <time>2011-11-30T12:06:40Z</time>
      </trkpt>
      <trkpt lat="45.32714" lon="5.91648">
        <ele>630</ele>
        <time>2011-11-30T12:06:44Z</time>
      </trkpt>
      <trkpt lat="45.3273" lon="5.9165">
        <ele>641</ele>
        <time>2011-11-30T12:06:51Z</time>
      </trkpt>
      <trkpt lat="45.32741" lon="5.91654">
        <ele>629</ele>
        <time>2011-11-30T12:06:55Z</time>
      </trkpt>
      <trkpt lat="45.32751" lon="5.91655">
        <ele>635</ele>
        <time>2011-11-30T12:06:58Z</time>
      </trkpt>
      <trkpt lat="45.32781" lon="5.91667">
        <ele>635</ele>
        <time>2011-11-30T12:07:10Z</time>
      </trkpt>
      <trkpt lat="45.3281" lon="5.91684">
        <ele>642</ele>
        <time>2011-11-30T12:07:22Z</time>
      </trkpt>
      <trkpt lat="45.3282" lon="5.91692">
        <ele>639</ele>
        <time>2011-11-30T12:07:26Z</time>
      </trkpt>
      <trkpt lat="45.32851" lon="5.91708">
        <ele>650</ele>
        <time>2011-11-30T12:07:38Z</time>
      </trkpt>
      <trkpt lat="45.32862" lon="5.91711">
        <ele>650</ele>
        <time>2011-11-30T12:07:42Z</time>
      </trkpt>
      <trkpt lat="45.32873" lon="5.91715">
        <ele>648</ele>
        <time>2011-11-30T12:07:46Z</time>
      </trkpt>
      <trkpt lat="45.32883" lon="5.91722">
        <ele>648</ele>
        <time>2011-11-30T12:07:50Z</time>
      </trkpt>
      <trkpt lat="45.32892" lon="5.91729">
        <ele>647</ele>
        <time>2011-11-30T12:07:54Z</time>
      </trkpt>
      <trkpt lat="45.32901" lon="5.91736">
        <ele>636</ele>
        <time>2011-11-30T12:07:57Z</time>
      </trkpt>
      <trkpt lat="45.32943" lon="5.91741">
        <ele>651</ele>
        <time>2011-11-30T12:08:15Z</time>
      </trkpt>
      <trkpt lat="45.32953" lon="5.91735">
        <ele>652</ele>
        <time>2011-11-30T12:08:20Z</time>
      </trkpt>
      <trkpt lat="45.3296" lon="5.91726">
        <ele>654</ele>
        <time>2011-11-30T12:08:26Z</time>
      </trkpt>
      <trkpt lat="45.32976" lon="5.91707">
        <ele>650</ele>
        <time>2011-11-30T12:08:37Z</time>
      </trkpt>
      <trkpt lat="45.32984" lon="5.91698">
        <ele>655</ele>
        <time>2011-11-30T12:08:42Z</time>
      </trkpt>
      <trkpt lat="45.32993" lon="5.9169">
        <ele>650</ele>
        <time>2011-11-30T12:08:47Z</time>
      </trkpt>
      <trkpt lat="45.33001" lon="5.91681">
        <ele>657</ele>
        <time>2011-11-30T12:08:52Z</time>
      </trkpt>
      <trkpt lat="45.33008" lon="5.91669">
        <ele>655</ele>
        <time>2011-11-30T12:08:57Z</time>
      </trkpt>
      <trkpt lat="45.33014" lon="5.91658">
        <ele>655</ele>
        <time>2011-11-30T12:09:02Z</time>
      </trkpt>
      <trkpt lat="45.33028" lon="5.91636">
        <ele>664</ele>
        <time>2011-11-30T12:09:11Z</time>
      </trkpt>
      <trkpt lat="45.33038" lon="5.9163">
        <ele>664</ele>
        <time>2011-11-30T12:09:16Z</time>
      </trkpt>
      <trkpt lat="45.33049" lon="5.91621">
        <ele>680</ele>
        <time>2011-11-30T12:09:35Z</time>
      </trkpt>
      <trkpt lat="45.33061" lon="5.91617">
        <ele>681</ele>
        <time>2011-11-30T12:10:18Z</time>
      </trkpt>
      <trkpt lat="45.3307" lon="5.91611">
        <ele>687</ele>
        <time>2011-11-30T12:10:26Z</time>
      </trkpt>
      <trkpt lat="45.33076" lon="5.91605">
        <ele>684</ele>
        <time>2011-11-30T12:10:31Z</time>
      </trkpt>
      <trkpt lat="45.3308" lon="5.91587">
        <ele>674</ele>
        <time>2011-11-30T12:10:39Z</time>
      </trkpt>
      <trkpt lat="45.3309" lon="5.91559">
        <ele>683</ele>
        <time>2011-11-30T12:10:50Z</time>
      </trkpt>
      <trkpt lat="45.33099" lon="5.91536">
        <ele>676</ele>
        <time>2011-11-30T12:10:58Z</time>
      </trkpt>
      <trkpt lat="45.33104" lon="5.91524">
        <ele>679</ele>
        <time>2011-11-30T12:11:02Z</time>
      </trkpt>
      <trkpt lat="45.33105" lon="5.91518">
        <ele>678</ele>
        <time>2011-11-30T12:11:04Z</time>
      </trkpt>
      <trkpt lat="45.33108" lon="5.91508">
        <ele>681</ele>
        <time>2011-11-30T12:11:07Z</time>
      </trkpt>
      <trkpt lat="45.33111" lon="5.91496">
        <ele>673</ele>
        <time>2011-11-30T12:11:11Z</time>
      </trkpt>
      <trkpt lat="45.33115" lon="5.9148">
        <ele>677</ele>
        <time>2011-11-30T12:11:16Z</time>
      </trkpt>
      <trkpt lat="45.33119" lon="5.91466">
        <ele>678</ele>
        <time>2011-11-30T12:11:20Z</time>
      </trkpt>
      <trkpt lat="45.33119" lon="5.91459">
        <ele>675</ele>
        <time>2011-11-30T12:11:22Z</time>
      </trkpt>
      <trkpt lat="45.33129" lon="5.9142">
        <ele>688</ele>
        <time>2011-11-30T12:11:40Z</time>
      </trkpt>
      <trkpt lat="45.33128" lon="5.91414">
        <ele>684</ele>
        <time>2011-11-30T12:11:46Z</time>
      </trkpt>
      <trkpt lat="45.33133" lon="5.914">
        <ele>685</ele>
        <time>2011-11-30T12:11:51Z</time>
      </trkpt>
      <trkpt lat="45.33137" lon="5.91388">
        <ele>685</ele>
        <time>2011-11-30T12:11:56Z</time>
      </trkpt>
      <trkpt lat="45.33151" lon="5.91345">
        <ele>700</ele>
        <time>2011-11-30T12:12:10Z</time>
      </trkpt>
      <trkpt lat="45.33159" lon="5.91333">
        <ele>695</ele>
        <time>2011-11-30T12:12:13Z</time>
      </trkpt>
      <trkpt lat="45.33164" lon="5.91317">
        <ele>695</ele>
        <time>2011-11-30T12:12:16Z</time>
      </trkpt>
      <trkpt lat="45.33168" lon="5.91301">
        <ele>689</ele>
        <time>2011-11-30T12:12:18Z</time>
      </trkpt>
      <trkpt lat="45.33172" lon="5.91273">
        <ele>695</ele>
        <time>2011-11-30T12:12:22Z</time>
      </trkpt>
      <trkpt lat="45.33176" lon="5.91259">
        <ele>693</ele>
        <time>2011-11-30T12:12:24Z</time>
      </trkpt>
      <trkpt lat="45.33208" lon="5.91222">
        <ele>700</ele>
        <time>2011-11-30T12:12:30Z</time>
      </trkpt>
      <trkpt lat="45.3322" lon="5.91208">
        <ele>700</ele>
        <time>2011-11-30T12:12:32Z</time>
      </trkpt>
      <trkpt lat="45.3323" lon="5.91202">
        <ele>701</ele>
        <time>2011-11-30T12:12:34Z</time>
      </trkpt>
      <trkpt lat="45.33232" lon="5.91217">
        <ele>698</ele>
        <time>2011-11-30T12:12:36Z</time>
      </trkpt>
      <trkpt lat="45.33237" lon="5.91242">
        <ele>701</ele>
        <time>2011-11-30T12:12:38Z</time>
      </trkpt>
      <trkpt lat="45.33239" lon="5.91257">
        <ele>700</ele>
        <time>2011-11-30T12:12:39Z</time>
      </trkpt>
      <trkpt lat="45.33261" lon="5.9133">
        <ele>691</ele>
        <time>2011-11-30T12:12:43Z</time>
      </trkpt>
      <trkpt lat="45.33268" lon="5.91347">
        <ele>691</ele>
        <time>2011-11-30T12:12:44Z</time>
      </trkpt>
      <trkpt lat="45.33303" lon="5.91475">
        <ele>667</ele>
        <time>2011-11-30T12:12:53Z</time>
      </trkpt>
      <trkpt lat="45.33309" lon="5.91488">
        <ele>668</ele>
        <time>2011-11-30T12:12:56Z</time>
      </trkpt>
      <trkpt lat="45.33313" lon="5.91492">
        <ele>664</ele>
        <time>2011-11-30T12:13:08Z</time>
      </trkpt>
      <trkpt lat="45.3332" lon="5.91483">
        <ele>654</ele>
        <time>2011-11-30T12:13:22Z</time>
      </trkpt>
      <trkpt lat="45.33339" lon="5.91474">
        <ele>657</ele>
        <time>2011-11-30T12:13:27Z</time>
      </trkpt>
      <trkpt lat="45.33349" lon="5.91469">
        <ele>656</ele>
        <time>2011-11-30T12:13:29Z</time>
      </trkpt>
      <trkpt lat="45.3336" lon="5.9146">
        <ele>655</ele>
        <time>2011-11-30T12:13:31Z</time>
      </trkpt>
      <trkpt lat="45.33371" lon="5.9145">
        <ele>656</ele>
        <time>2011-11-30T12:13:33Z</time>
      </trkpt>
      <trkpt lat="45.33398" lon="5.91432">
        <ele>653</ele>
        <time>2011-11-30T12:13:37Z</time>
      </trkpt>
      <trkpt lat="45.33412" lon="5.91426">
        <ele>654</ele>
        <time>2011-11-30T12:13:39Z</time>
      </trkpt>
      <trkpt lat="45.33428" lon="5.91423">
        <ele>652</ele>
        <time>2011-11-30T12:13:41Z</time>
      </trkpt>
      <trkpt lat="45.33442" lon="5.9142">
        <ele>656</ele>
        <time>2011-11-30T12:13:43Z</time>
      </trkpt>
      <trkpt lat="45.33456" lon="5.91417">
        <ele>654</ele>
        <time>2011-11-30T12:13:45Z</time>
      </trkpt>
      <trkpt lat="45.3347" lon="5.91416">
        <ele>654</ele>
        <time>2011-11-30T12:13:47Z</time>
      </trkpt>
      <trkpt lat="45.33485" lon="5.91416">
        <ele>658</ele>
        <time>2011-11-30T12:13:50Z</time>
      </trkpt>
      <trkpt lat="45.33495" lon="5.91417">
        <ele>658</ele>
        <time>2011-11-30T12:13:51Z</time>
      </trkpt>
      <trkpt lat="45.33504" lon="5.91419">
        <ele>658</ele>
        <time>2011-11-30T12:13:52Z</time>
      </trkpt>
      <trkpt lat="45.3352" lon="5.91424">
        <ele>665</ele>
        <time>2011-11-30T12:13:54Z</time>
      </trkpt>
      <trkpt lat="45.33536" lon="5.91432">
        <ele>660</ele>
        <time>2011-11-30T12:13:56Z</time>
      </trkpt>
      <trkpt lat="45.33548" lon="5.91443">
        <ele>661</ele>
        <time>2011-11-30T12:13:58Z</time>
      </trkpt>
      <trkpt lat="45.33555" lon="5.91464">
        <ele>662</ele>
        <time>2011-11-30T12:14:00Z</time>
      </trkpt>
      <trkpt lat="45.33554" lon="5.91481">
        <ele>658</ele>
        <time>2011-11-30T12:14:01Z</time>
      </trkpt>
      <trkpt lat="45.3355" lon="5.91498">
        <ele>655</ele>
        <time>2011-11-30T12:14:02Z</time>
      </trkpt>
      <trkpt lat="45.33545" lon="5.91512">
        <ele>655</ele>
        <time>2011-11-30T12:14:03Z</time>
      </trkpt>
      <trkpt lat="45.33538" lon="5.91538">
        <ele>647</ele>
        <time>2011-11-30T12:14:05Z</time>
      </trkpt>
      <trkpt lat="45.33538" lon="5.91551">
        <ele>647</ele>
        <time>2011-11-30T12:14:06Z</time>
      </trkpt>
      <trkpt lat="45.33537" lon="5.91564">
        <ele>644</ele>
        <time>2011-11-30T12:14:07Z</time>
      </trkpt>
      <trkpt lat="45.3354" lon="5.91646">
        <ele>642</ele>
        <time>2011-11-30T12:14:14Z</time>
      </trkpt>
      <trkpt lat="45.33538" lon="5.91715">
        <ele>633</ele>
        <time>2011-11-30T12:14:19Z</time>
      </trkpt>
      <trkpt lat="45.33538" lon="5.91729">
        <ele>634</ele>
        <time>2011-11-30T12:14:20Z</time>
      </trkpt>
      <trkpt lat="45.33536" lon="5.91758">
        <ele>627</ele>
        <time>2011-11-30T12:14:22Z</time>
      </trkpt>
      <trkpt lat="45.33534" lon="5.91774">
        <ele>627</ele>
        <time>2011-11-30T12:14:23Z</time>
      </trkpt>
      <trkpt lat="45.33529" lon="5.91789">
        <ele>622</ele>
        <time>2011-11-30T12:14:24Z</time>
      </trkpt>
      <trkpt lat="45.33521" lon="5.91814">
        <ele>621</ele>
        <time>2011-11-30T12:14:26Z</time>
      </trkpt>
      <trkpt lat="45.33517" lon="5.91825">
        <ele>618</ele>
        <time>2011-11-30T12:14:27Z</time>
      </trkpt>
      <trkpt lat="45.33514" lon="5.91838">
        <ele>620</ele>
        <time>2011-11-30T12:14:28Z</time>
      </trkpt>
      <trkpt lat="45.3351" lon="5.91892">
        <ele>612</ele>
        <time>2011-11-30T12:14:32Z</time>
      </trkpt>
      <trkpt lat="45.3351" lon="5.91907">
        <ele>613</ele>
        <time>2011-11-30T12:14:33Z</time>
      </trkpt>
      <trkpt lat="45.3351" lon="5.91922">
        <ele>613</ele>
        <time>2011-11-30T12:14:34Z</time>
      </trkpt>
      <trkpt lat="45.3351" lon="5.91936">
        <ele>613</ele>
        <time>2011-11-30T12:14:35Z</time>
      </trkpt>
      <trkpt lat="45.33509" lon="5.9195">
        <ele>612</ele>
        <time>2011-11-30T12:14:36Z</time>
      </trkpt>
      <trkpt lat="45.33508" lon="5.9197">
        <ele>614</ele>
        <time>2011-11-30T12:14:38Z</time>
      </trkpt>
      <trkpt lat="45.33508" lon="5.91979">
        <ele>610</ele>
        <time>2011-11-30T12:14:52Z</time>
      </trkpt>
      <trkpt lat="45.33509" lon="5.91998">
        <ele>610</ele>
        <time>2011-11-30T12:15:00Z</time>
      </trkpt>
      <trkpt lat="45.3351" lon="5.92015">
        <ele>610</ele>
        <time>2011-11-30T12:15:03Z</time>
      </trkpt>
      <trkpt lat="45.33511" lon="5.92033">
        <ele>607</ele>
        <time>2011-11-30T12:15:05Z</time>
      </trkpt>
      <trkpt lat="45.33513" lon="5.92053">
        <ele>608</ele>
        <time>2011-11-30T12:15:07Z</time>
      </trkpt>
      <trkpt lat="45.33521" lon="5.92107">
        <ele>607</ele>
        <time>2011-11-30T12:15:12Z</time>
      </trkpt>
      <trkpt lat="45.33528" lon="5.92129">
        <ele>606</ele>
        <time>2011-11-30T12:15:14Z</time>
      </trkpt>
      <trkpt lat="45.33528" lon="5.92176">
        <ele>594</ele>
        <time>2011-11-30T12:15:18Z</time>
      </trkpt>
      <trkpt lat="45.33534" lon="5.9221">
        <ele>593</ele>
        <time>2011-11-30T12:15:22Z</time>
      </trkpt>
      <trkpt lat="45.33541" lon="5.92231">
        <ele>594</ele>
        <time>2011-11-30T12:15:24Z</time>
      </trkpt>
      <trkpt lat="45.33548" lon="5.92241">
        <ele>597</ele>
        <time>2011-11-30T12:15:25Z</time>
      </trkpt>
      <trkpt lat="45.33555" lon="5.92252">
        <ele>594</ele>
        <time>2011-11-30T12:15:26Z</time>
      </trkpt>
      <trkpt lat="45.33559" lon="5.92273">
        <ele>596</ele>
        <time>2011-11-30T12:15:28Z</time>
      </trkpt>
      <trkpt lat="45.33559" lon="5.92308">
        <ele>588</ele>
        <time>2011-11-30T12:15:32Z</time>
      </trkpt>
      <trkpt lat="45.33562" lon="5.92325">
        <ele>591</ele>
        <time>2011-11-30T12:15:35Z</time>
      </trkpt>
      <trkpt lat="45.33563" lon="5.92333">
        <ele>588</ele>
        <time>2011-11-30T12:15:45Z</time>
      </trkpt>
      <trkpt lat="45.33558" lon="5.92332">
        <ele>596</ele>
        <time>2011-11-30T12:15:56Z</time>
      </trkpt>
      <trkpt lat="45.33553" lon="5.92334">
        <ele>591</ele>
        <time>2011-11-30T12:16:11Z</time>
      </trkpt>
      <trkpt lat="45.33553" lon="5.92334">
        <ele>591</ele>
        <time>2011-11-30T12:17:09Z</time>
      </trkpt>
      <trkpt lat="45.33549" lon="5.92336">
        <ele>590</ele>
        <time>2011-11-30T12:17:13Z</time>
      </trkpt>
      <trkpt lat="45.33551" lon="5.92342">
        <ele>594</ele>
        <time>2011-11-30T12:18:42Z</time>
      </trkpt>
      <trkpt lat="45.33552" lon="5.9235">
        <ele>595</ele>
        <time>2011-11-30T12:18:45Z</time>
      </trkpt>
      <trkpt lat="45.33552" lon="5.92359">
        <ele>590</ele>
        <time>2011-11-30T12:18:48Z</time>
      </trkpt>
      <trkpt lat="45.33552" lon="5.92367">
        <ele>592</ele>
        <time>2011-11-30T12:18:52Z</time>
      </trkpt>
      <trkpt lat="45.33553" lon="5.92375">
        <ele>591</ele>
        <time>2011-11-30T12:18:56Z</time>
      </trkpt>
      <trkpt lat="45.33555" lon="5.92383">
        <ele>588</ele>
        <time>2011-11-30T12:19:00Z</time>
      </trkpt>
      <trkpt lat="45.33555" lon="5.92391">
        <ele>589</ele>
        <time>2011-11-30T12:19:04Z</time>
      </trkpt>
      <trkpt lat="45.3355" lon="5.92392">
        <ele>582</ele>
        <time>2011-11-30T12:19:33Z</time>
      </trkpt>
      <trkpt lat="45.33545" lon="5.92391">
        <ele>582</ele>
        <time>2011-11-30T12:19:35Z</time>
      </trkpt>
      <trkpt lat="45.33546" lon="5.92396">
        <ele>581</ele>
        <time>2011-11-30T12:20:06Z</time>
      </trkpt>
      <trkpt lat="45.33544" lon="5.92399">
        <ele>575</ele>
        <time>2011-11-30T12:20:53Z</time>
      </trkpt>
      <trkpt lat="45.33541" lon="5.924">
        <ele>576</ele>
        <time>2011-11-30T12:20:59Z</time>
      </trkpt>
      <trkpt lat="45.3354" lon="5.92408">
        <ele>575</ele>
        <time>2011-11-30T12:21:49Z</time>
      </trkpt>
      <trkpt lat="45.33535" lon="5.92418">
        <ele>570</ele>
        <time>2011-11-30T12:22:17Z</time>
      </trkpt>
      <trkpt lat="45.33535" lon="5.92422">
        <ele>572</ele>
        <time>2011-11-30T12:22:33Z</time>
      </trkpt>
      <trkpt lat="45.3353" lon="5.9243">
        <ele>558</ele>
        <time>2011-11-30T12:23:06Z</time>
      </trkpt>
      <trkpt lat="45.33529" lon="5.9242">
        <ele>557</ele>
        <time>2011-11-30T12:23:24Z</time>
      </trkpt>
      <trkpt lat="45.33528" lon="5.9241">
        <ele>558</ele>
        <time>2011-11-30T12:23:43Z</time>
      </trkpt>
      <trkpt lat="45.33525" lon="5.92425">
        <ele>559</ele>
        <time>2011-11-30T12:24:06Z</time>
      </trkpt>
      <trkpt lat="45.33524" lon="5.92432">
        <ele>553</ele>
        <time>2011-11-30T12:24:10Z</time>
      </trkpt>
      <trkpt lat="45.33522" lon="5.92441">
        <ele>552</ele>
        <time>2011-11-30T12:24:14Z</time>
      </trkpt>
      <trkpt lat="45.33519" lon="5.92448">
        <ele>552</ele>
        <time>2011-11-30T12:24:19Z</time>
      </trkpt>
      <trkpt lat="45.33514" lon="5.92445">
        <ele>553</ele>
        <time>2011-11-30T12:24:51Z</time>
      </trkpt>
      <trkpt lat="45.33511" lon="5.9244">
        <ele>550</ele>
        <time>2011-11-30T12:24:53Z</time>
      </trkpt>
      <trkpt lat="45.33508" lon="5.92434">
        <ele>551</ele>
        <time>2011-11-30T12:24:57Z</time>
      </trkpt>
      <trkpt lat="45.3351" lon="5.92427">
        <ele>553</ele>
        <time>2011-11-30T12:25:00Z</time>
      </trkpt>
      <trkpt lat="45.33511" lon="5.92411">
        <ele>544</ele>
        <time>2011-11-30T12:25:08Z</time>
      </trkpt>
      <trkpt lat="45.33511" lon="5.92403">
        <ele>544</ele>
        <time>2011-11-30T12:25:12Z</time>
      </trkpt>
      <trkpt lat="45.3351" lon="5.92395">
        <ele>544</ele>
        <time>2011-11-30T12:25:15Z</time>
      </trkpt>
      <trkpt lat="45.33508" lon="5.92377">
        <ele>543</ele>
        <time>2011-11-30T12:25:20Z</time>
      </trkpt>
      <trkpt lat="45.33507" lon="5.92363">
        <ele>543</ele>
        <time>2011-11-30T12:25:25Z</time>
      </trkpt>
      <trkpt lat="45.33507" lon="5.92358">
        <ele>532</ele>
        <time>2011-11-30T12:25:47Z</time>
      </trkpt>
      <trkpt lat="45.33505" lon="5.92343">
        <ele>532</ele>
        <time>2011-11-30T12:26:28Z</time>
      </trkpt>
      <trkpt lat="45.33501" lon="5.92344">
        <ele>538</ele>
        <time>2011-11-30T12:27:02Z</time>
      </trkpt>
      <trkpt lat="45.33494" lon="5.9234">
        <ele>536</ele>
        <time>2011-11-30T12:27:13Z</time>
      </trkpt>
      <trkpt lat="45.33488" lon="5.92337">
        <ele>536</ele>
        <time>2011-11-30T12:27:16Z</time>
      </trkpt>
      <trkpt lat="45.33482" lon="5.92334">
        <ele>533</ele>
        <time>2011-11-30T12:27:19Z</time>
      </trkpt>
      <trkpt lat="45.33479" lon="5.92326">
        <ele>527</ele>
        <time>2011-11-30T12:27:22Z</time>
      </trkpt>
      <trkpt lat="45.33477" lon="5.92318">
        <ele>523</ele>
        <time>2011-11-30T12:27:24Z</time>
      </trkpt>
      <trkpt lat="45.33478" lon="5.92309">
        <ele>523</ele>
        <time>2011-11-30T12:27:27Z</time>
      </trkpt>
      <trkpt lat="45.33477" lon="5.92314">
        <ele>525</ele>
        <time>2011-11-30T12:28:55Z</time>
      </trkpt>
      <trkpt lat="45.33479" lon="5.9232">
        <ele>521</ele>
        <time>2011-11-30T12:28:58Z</time>
      </trkpt>
      <trkpt lat="45.33485" lon="5.92334">
        <ele>527</ele>
        <time>2011-11-30T12:29:05Z</time>
      </trkpt>
      <trkpt lat="45.33486" lon="5.92341">
        <ele>526</ele>
        <time>2011-11-30T12:29:09Z</time>
      </trkpt>
      <trkpt lat="45.33482" lon="5.92342">
        <ele>520</ele>
        <time>2011-11-30T12:29:41Z</time>
      </trkpt>
      <trkpt lat="45.33472" lon="5.92339">
        <ele>520</ele>
        <time>2011-11-30T12:29:45Z</time>
      </trkpt>
      <trkpt lat="45.3346" lon="5.92333">
        <ele>516</ele>
        <time>2011-11-30T12:29:49Z</time>
      </trkpt>
      <trkpt lat="45.33454" lon="5.92329">
        <ele>517</ele>
        <time>2011-11-30T12:29:52Z</time>
      </trkpt>
      <trkpt lat="45.33451" lon="5.92323">
        <ele>514</ele>
        <time>2011-11-30T12:29:55Z</time>
      </trkpt>
      <trkpt lat="45.33452" lon="5.92314">
        <ele>512</ele>
        <time>2011-11-30T12:29:58Z</time>
      </trkpt>
      <trkpt lat="45.33454" lon="5.92308">
        <ele>510</ele>
        <time>2011-11-30T12:30:00Z</time>
      </trkpt>
      <trkpt lat="45.33459" lon="5.92293">
        <ele>512</ele>
        <time>2011-11-30T12:30:05Z</time>
      </trkpt>
      <trkpt lat="45.33458" lon="5.92284">
        <ele>513</ele>
        <time>2011-11-30T12:30:11Z</time>
      </trkpt>
      <trkpt lat="45.33457" lon="5.92278">
        <ele>517</ele>
        <time>2011-11-30T12:30:52Z</time>
      </trkpt>
      <trkpt lat="45.33457" lon="5.92274">
        <ele>511</ele>
        <time>2011-11-30T12:30:59Z</time>
      </trkpt>
      <trkpt lat="45.33456" lon="5.92266">
        <ele>515</ele>
        <time>2011-11-30T12:31:53Z</time>
      </trkpt>
      <trkpt lat="45.33456" lon="5.92255">
        <ele>505</ele>
        <time>2011-11-30T12:32:02Z</time>
      </trkpt>
      <trkpt lat="45.33446" lon="5.92255">
        <ele>508</ele>
        <time>2011-11-30T12:32:22Z</time>
      </trkpt>
      <trkpt lat="45.33447" lon="5.92248">
        <ele>503</ele>
        <time>2011-11-30T12:32:28Z</time>
      </trkpt>
      <trkpt lat="45.33443" lon="5.92244">
        <ele>507</ele>
        <time>2011-11-30T12:32:35Z</time>
      </trkpt>
      <trkpt lat="45.3343" lon="5.92243">
        <ele>502</ele>
        <time>2011-11-30T12:33:15Z</time>
      </trkpt>
      <trkpt lat="45.33421" lon="5.92243">
        <ele>508</ele>
        <time>2011-11-30T12:33:18Z</time>
      </trkpt>
      <trkpt lat="45.33417" lon="5.92242">
        <ele>507</ele>
        <time>2011-11-30T12:33:20Z</time>
      </trkpt>
      <trkpt lat="45.33411" lon="5.92234">
        <ele>500</ele>
        <time>2011-11-30T12:33:23Z</time>
      </trkpt>
      <trkpt lat="45.33409" lon="5.92224">
        <ele>496</ele>
        <time>2011-11-30T12:33:25Z</time>
      </trkpt>
      <trkpt lat="45.33408" lon="5.92216">
        <ele>497</ele>
        <time>2011-11-30T12:33:27Z</time>
      </trkpt>
      <trkpt lat="45.33402" lon="5.92203">
        <ele>497</ele>
        <time>2011-11-30T12:33:31Z</time>
      </trkpt>
      <trkpt lat="45.33402" lon="5.92179">
        <ele>491</ele>
        <time>2011-11-30T12:33:36Z</time>
      </trkpt>
      <trkpt lat="45.33391" lon="5.92178">
        <ele>494</ele>
        <time>2011-11-30T12:33:43Z</time>
      </trkpt>
      <trkpt lat="45.33381" lon="5.92178">
        <ele>496</ele>
        <time>2011-11-30T12:33:48Z</time>
      </trkpt>
      <trkpt lat="45.33375" lon="5.92177">
        <ele>495</ele>
        <time>2011-11-30T12:33:50Z</time>
      </trkpt>
      <trkpt lat="45.33369" lon="5.92172">
        <ele>488</ele>
        <time>2011-11-30T12:33:52Z</time>
      </trkpt>
      <trkpt lat="45.33364" lon="5.92172">
        <ele>484</ele>
        <time>2011-11-30T12:33:58Z</time>
      </trkpt>
      <trkpt lat="45.33359" lon="5.9217">
        <ele>483</ele>
        <time>2011-11-30T12:34:00Z</time>
      </trkpt>
      <trkpt lat="45.33356" lon="5.92165">
        <ele>477</ele>
        <time>2011-11-30T12:34:02Z</time>
      </trkpt>
      <trkpt lat="45.33351" lon="5.92154">
        <ele>482</ele>
        <time>2011-11-30T12:34:06Z</time>
      </trkpt>
      <trkpt lat="45.33349" lon="5.92151">
        <ele>481</ele>
        <time>2011-11-30T12:34:17Z</time>
      </trkpt>
      <trkpt lat="45.33346" lon="5.9216">
        <ele>475</ele>
        <time>2011-11-30T12:34:26Z</time>
      </trkpt>
      <trkpt lat="45.3334" lon="5.92155">
        <ele>481</ele>
        <time>2011-11-30T12:35:39Z</time>
      </trkpt>
      <trkpt lat="45.3334" lon="5.92155">
        <ele>471</ele>
        <time>2011-11-30T12:36:00Z</time>
      </trkpt>
      <trkpt lat="45.33349" lon="5.92166">
        <ele>464</ele>
        <time>2011-11-30T12:36:39Z</time>
      </trkpt>
      <trkpt lat="45.33351" lon="5.92175">
        <ele>464</ele>
        <time>2011-11-30T12:36:46Z</time>
      </trkpt>
      <trkpt lat="45.33347" lon="5.9218">
        <ele>463</ele>
        <time>2011-11-30T12:36:50Z</time>
      </trkpt>
      <trkpt lat="45.33349" lon="5.92183">
        <ele>467</ele>
        <time>2011-11-30T12:37:12Z</time>
      </trkpt>
      <trkpt lat="45.33345" lon="5.92189">
        <ele>464</ele>
        <time>2011-11-30T12:37:33Z</time>
      </trkpt>
      <trkpt lat="45.33343" lon="5.92191">
        <ele>465</ele>
        <time>2011-11-30T12:38:02Z</time>
      </trkpt>
      <trkpt lat="45.33353" lon="5.92196">
        <ele>464</ele>
        <time>2011-11-30T12:38:09Z</time>
      </trkpt>
      <trkpt lat="45.33358" lon="5.92197">
        <ele>463</ele>
        <time>2011-11-30T12:38:11Z</time>
      </trkpt>
      <trkpt lat="45.33353" lon="5.92205">
        <ele>449</ele>
        <time>2011-11-30T12:38:44Z</time>
      </trkpt>
      <trkpt lat="45.33336" lon="5.92212">
        <ele>457</ele>
        <time>2011-11-30T12:39:00Z</time>
      </trkpt>
      <trkpt lat="45.33331" lon="5.92213">
        <ele>454</ele>
        <time>2011-11-30T12:39:02Z</time>
      </trkpt>
      <trkpt lat="45.33326" lon="5.92208">
        <ele>448</ele>
        <time>2011-11-30T12:39:05Z</time>
      </trkpt>
      <trkpt lat="45.3333" lon="5.92207">
        <ele>456</ele>
        <time>2011-11-30T12:39:53Z</time>
      </trkpt>
      <trkpt lat="45.33336" lon="5.9221">
        <ele>453</ele>
        <time>2011-11-30T12:39:55Z</time>
      </trkpt>
      <trkpt lat="45.33342" lon="5.92212">
        <ele>456</ele>
        <time>2011-11-30T12:39:57Z</time>
      </trkpt>
      <trkpt lat="45.33356" lon="5.9222">
        <ele>442</ele>
        <time>2011-11-30T12:40:12Z</time>
      </trkpt>
      <trkpt lat="45.33361" lon="5.92229">
        <ele>427</ele>
        <time>2011-11-30T12:40:17Z</time>
      </trkpt>
      <trkpt lat="45.33352" lon="5.92234">
        <ele>444</ele>
        <time>2011-11-30T12:40:22Z</time>
      </trkpt>
      <trkpt lat="45.33334" lon="5.92239">
        <ele>438</ele>
        <time>2011-11-30T12:40:28Z</time>
      </trkpt>
      <trkpt lat="45.33326" lon="5.92234">
        <ele>439</ele>
        <time>2011-11-30T12:40:31Z</time>
      </trkpt>
      <trkpt lat="45.33329" lon="5.92231">
        <ele>439</ele>
        <time>2011-11-30T12:40:53Z</time>
      </trkpt>
      <trkpt lat="45.33339" lon="5.92236">
        <ele>432</ele>
        <time>2011-11-30T12:40:56Z</time>
      </trkpt>
      <trkpt lat="45.3334" lon="5.92246">
        <ele>436</ele>
        <time>2011-11-30T12:41:30Z</time>
      </trkpt>
      <trkpt lat="45.33331" lon="5.92251">
        <ele>437</ele>
        <time>2011-11-30T12:41:33Z</time>
      </trkpt>
      <trkpt lat="45.33327" lon="5.92256">
        <ele>434</ele>
        <time>2011-11-30T12:41:35Z</time>
      </trkpt>
      <trkpt lat="45.33323" lon="5.92258">
        <ele>436</ele>
        <time>2011-11-30T12:41:37Z</time>
      </trkpt>
      <trkpt lat="45.33317" lon="5.92257">
        <ele>433</ele>
        <time>2011-11-30T12:41:39Z</time>
      </trkpt>
      <trkpt lat="45.33312" lon="5.92253">
        <ele>433</ele>
        <time>2011-11-30T12:41:42Z</time>
      </trkpt>
      <trkpt lat="45.33307" lon="5.92243">
        <ele>426</ele>
        <time>2011-11-30T12:41:48Z</time>
      </trkpt>
      <trkpt lat="45.33312" lon="5.92245">
        <ele>419</ele>
        <time>2011-11-30T12:41:58Z</time>
      </trkpt>
      <trkpt lat="45.33315" lon="5.9225">
        <ele>419</ele>
        <time>2011-11-30T12:42:00Z</time>
      </trkpt>
      <trkpt lat="45.33327" lon="5.92257">
        <ele>422</ele>
        <time>2011-11-30T12:42:07Z</time>
      </trkpt>
      <trkpt lat="45.33335" lon="5.92263">
        <ele>415</ele>
        <time>2011-11-30T12:42:20Z</time>
      </trkpt>
      <trkpt lat="45.33325" lon="5.92275">
        <ele>426</ele>
        <time>2011-11-30T12:42:30Z</time>
      </trkpt>
      <trkpt lat="45.3332" lon="5.92279">
        <ele>421</ele>
        <time>2011-11-30T12:42:32Z</time>
      </trkpt>
      <trkpt lat="45.33313" lon="5.92278">
        <ele>416</ele>
        <time>2011-11-30T12:42:35Z</time>
      </trkpt>
      <trkpt lat="45.33313" lon="5.92268">
        <ele>408</ele>
        <time>2011-11-30T12:42:51Z</time>
      </trkpt>
      <trkpt lat="45.33318" lon="5.92271">
        <ele>413</ele>
        <time>2011-11-30T12:42:54Z</time>
      </trkpt>
      <trkpt lat="45.3332" lon="5.92284">
        <ele>411</ele>
        <time>2011-11-30T12:43:21Z</time>
      </trkpt>
      <trkpt lat="45.33313" lon="5.92288">
        <ele>408</ele>
        <time>2011-11-30T12:43:55Z</time>
      </trkpt>
      <trkpt lat="45.33305" lon="5.92278">
        <ele>399</ele>
        <time>2011-11-30T12:43:59Z</time>
      </trkpt>
      <trkpt lat="45.33289" lon="5.92244">
        <ele>388</ele>
        <time>2011-11-30T12:44:09Z</time>
      </trkpt>
      <trkpt lat="45.33285" lon="5.92235">
        <ele>389</ele>
        <time>2011-11-30T12:44:11Z</time>
      </trkpt>
      <trkpt lat="45.3328" lon="5.92227">
        <ele>387</ele>
        <time>2011-11-30T12:44:13Z</time>
      </trkpt>
      <trkpt lat="45.33276" lon="5.92223">
        <ele>388</ele>
        <time>2011-11-30T12:44:15Z</time>
      </trkpt>
      <trkpt lat="45.33271" lon="5.9222">
        <ele>376</ele>
        <time>2011-11-30T12:44:36Z</time>
      </trkpt>
      <trkpt lat="45.3327" lon="5.92222">
        <ele>382</ele>
        <time>2011-11-30T12:45:31Z</time>
      </trkpt>
      <trkpt lat="45.33267" lon="5.92216">
        <ele>389</ele>
        <time>2011-11-30T12:45:33Z</time>
      </trkpt>
      <trkpt lat="45.33262" lon="5.922">
        <ele>389</ele>
        <time>2011-11-30T12:45:36Z</time>
      </trkpt>
      <trkpt lat="45.33247" lon="5.92175">
        <ele>388</ele>
        <time>2011-11-30T12:45:41Z</time>
      </trkpt>
      <trkpt lat="45.33239" lon="5.92167">
        <ele>393</ele>
        <time>2011-11-30T12:45:43Z</time>
      </trkpt>
      <trkpt lat="45.33228" lon="5.9216">
        <ele>388</ele>
        <time>2011-11-30T12:45:45Z</time>
      </trkpt>
      <trkpt lat="45.33217" lon="5.92158">
        <ele>388</ele>
        <time>2011-11-30T12:45:47Z</time>
      </trkpt>
      <trkpt lat="45.33208" lon="5.92163">
        <ele>384</ele>
        <time>2011-11-30T12:45:50Z</time>
      </trkpt>
      <trkpt lat="45.33205" lon="5.92157">
        <ele>365</ele>
        <time>2011-11-30T12:46:10Z</time>
      </trkpt>
      <trkpt lat="45.33214" lon="5.92173">
        <ele>350</ele>
        <time>2011-11-30T12:46:53Z</time>
      </trkpt>
      <trkpt lat="45.33215" lon="5.92161">
        <ele>376</ele>
        <time>2011-11-30T12:47:14Z</time>
      </trkpt>
      <trkpt lat="45.33213" lon="5.92174">
        <ele>404</ele>
        <time>2011-11-30T12:47:36Z</time>
      </trkpt>
      <trkpt lat="45.3323" lon="5.92269">
        <ele>364</ele>
        <time>2011-11-30T12:47:54Z</time>
      </trkpt>
      <trkpt lat="45.33232" lon="5.92283">
        <ele>368</ele>
        <time>2011-11-30T12:47:57Z</time>
      </trkpt>
      <trkpt lat="45.33243" lon="5.92334">
        <ele>349</ele>
        <time>2011-11-30T12:48:04Z</time>
      </trkpt>
      <trkpt lat="45.3324" lon="5.9235">
        <ele>341</ele>
        <time>2011-11-30T12:48:06Z</time>
      </trkpt>
      <trkpt lat="45.33237" lon="5.92364">
        <ele>342</ele>
        <time>2011-11-30T12:48:08Z</time>
      </trkpt>
      <trkpt lat="45.33222" lon="5.9239">
        <ele>332</ele>
        <time>2011-11-30T12:48:12Z</time>
      </trkpt>
      <trkpt lat="45.33206" lon="5.92412">
        <ele>338</ele>
        <time>2011-11-30T12:48:18Z</time>
      </trkpt>
      <trkpt lat="45.33207" lon="5.92446">
        <ele>345</ele>
        <time>2011-11-30T12:48:24Z</time>
      </trkpt>
      <trkpt lat="45.33206" lon="5.9246">
        <ele>341</ele>
        <time>2011-11-30T12:48:26Z</time>
      </trkpt>
      <trkpt lat="45.33208" lon="5.92474">
        <ele>342</ele>
        <time>2011-11-30T12:48:28Z</time>
      </trkpt>
      <trkpt lat="45.3321" lon="5.92488">
        <ele>338</ele>
        <time>2011-11-30T12:48:30Z</time>
      </trkpt>
      <trkpt lat="45.33211" lon="5.92503">
        <ele>343</ele>
        <time>2011-11-30T12:48:32Z</time>
      </trkpt>
      <trkpt lat="45.33207" lon="5.92527">
        <ele>336</ele>
        <time>2011-11-30T12:48:35Z</time>
      </trkpt>
      <trkpt lat="45.33202" lon="5.92542">
        <ele>337</ele>
        <time>2011-11-30T12:48:37Z</time>
      </trkpt>
      <trkpt lat="45.33192" lon="5.92555">
        <ele>334</ele>
        <time>2011-11-30T12:48:39Z</time>
      </trkpt>
      <trkpt lat="45.33178" lon="5.92577">
        <ele>332</ele>
        <time>2011-11-30T12:48:43Z</time>
      </trkpt>
      <trkpt lat="45.33173" lon="5.9259">
        <ele>334</ele>
        <time>2011-11-30T12:48:46Z</time>
      </trkpt>
      <trkpt lat="45.33168" lon="5.92601">
        <ele>333</ele>
        <time>2011-11-30T12:48:49Z</time>
      </trkpt>
      <trkpt lat="45.33156" lon="5.92622">
        <ele>325</ele>
        <time>2011-11-30T12:49:00Z</time>
      </trkpt>
      <trkpt lat="45.33152" lon="5.92628">
        <ele>325</ele>
        <time>2011-11-30T12:49:02Z</time>
      </trkpt>
      <trkpt lat="45.33134" lon="5.92642">
        <ele>331</ele>
        <time>2011-11-30T12:49:07Z</time>
      </trkpt>
      <trkpt lat="45.33104" lon="5.92661">
        <ele>317</ele>
        <time>2011-11-30T12:49:14Z</time>
      </trkpt>
      <trkpt lat="45.33093" lon="5.92669">
        <ele>318</ele>
        <time>2011-11-30T12:49:17Z</time>
      </trkpt>
      <trkpt lat="45.33087" lon="5.92683">
        <ele>312</ele>
        <time>2011-11-30T12:49:20Z</time>
      </trkpt>
      <trkpt lat="45.33083" lon="5.92696">
        <ele>321</ele>
        <time>2011-11-30T12:49:23Z</time>
      </trkpt>
      <trkpt lat="45.33077" lon="5.92717">
        <ele>307</ele>
        <time>2011-11-30T12:49:27Z</time>
      </trkpt>
      <trkpt lat="45.33064" lon="5.92742">
        <ele>323</ele>
        <time>2011-11-30T12:49:32Z</time>
      </trkpt>
      <trkpt lat="45.33056" lon="5.9276">
        <ele>323</ele>
        <time>2011-11-30T12:49:35Z</time>
      </trkpt>
      <trkpt lat="45.33049" lon="5.92772">
        <ele>326</ele>
        <time>2011-11-30T12:49:37Z</time>
      </trkpt>
      <trkpt lat="45.33044" lon="5.92782">
        <ele>326</ele>
        <time>2011-11-30T12:49:39Z</time>
      </trkpt>
      <trkpt lat="45.33023" lon="5.92809">
        <ele>315</ele>
        <time>2011-11-30T12:49:44Z</time>
      </trkpt>
      <trkpt lat="45.33016" lon="5.9282">
        <ele>315</ele>
        <time>2011-11-30T12:49:46Z</time>
      </trkpt>
      <trkpt lat="45.32999" lon="5.92849">
        <ele>303</ele>
        <time>2011-11-30T12:49:52Z</time>
      </trkpt>
      <trkpt lat="45.32994" lon="5.92863">
        <ele>306</ele>
        <time>2011-11-30T12:49:54Z</time>
      </trkpt>
      <trkpt lat="45.32982" lon="5.92886">
        <ele>295</ele>
        <time>2011-11-30T12:49:58Z</time>
      </trkpt>
      <trkpt lat="45.32978" lon="5.92892">
        <ele>297</ele>
        <time>2011-11-30T12:49:59Z</time>
      </trkpt>
      <trkpt lat="45.32974" lon="5.92898">
        <ele>298</ele>
        <time>2011-11-30T12:50:00Z</time>
      </trkpt>
      <trkpt lat="45.3296" lon="5.92942">
        <ele>289</ele>
        <time>2011-11-30T12:50:08Z</time>
      </trkpt>
      <trkpt lat="45.32957" lon="5.92955">
        <ele>289</ele>
        <time>2011-11-30T12:50:11Z</time>
      </trkpt>
      <trkpt lat="45.32956" lon="5.92965">
        <ele>289</ele>
        <time>2011-11-30T12:50:13Z</time>
      </trkpt>
      <trkpt lat="45.32955" lon="5.92982">
        <ele>285</ele>
        <time>2011-11-30T12:50:15Z</time>
      </trkpt>
      <trkpt lat="45.32952" lon="5.92999">
        <ele>288</ele>
        <time>2011-11-30T12:50:17Z</time>
      </trkpt>
      <trkpt lat="45.32929" lon="5.93029">
        <ele>272</ele>
        <time>2011-11-30T12:50:23Z</time>
      </trkpt>
      <trkpt lat="45.32924" lon="5.93033">
        <ele>274</ele>
        <time>2011-11-30T12:50:24Z</time>
      </trkpt>
      <trkpt lat="45.32919" lon="5.93038">
        <ele>270</ele>
        <time>2011-11-30T12:50:25Z</time>
      </trkpt>
      <trkpt lat="45.32914" lon="5.93043">
        <ele>270</ele>
        <time>2011-11-30T12:50:26Z</time>
      </trkpt>
      <trkpt lat="45.3291" lon="5.93048">
        <ele>267</ele>
        <time>2011-11-30T12:50:27Z</time>
      </trkpt>
      <trkpt lat="45.32906" lon="5.93066">
        <ele>269</ele>
        <time>2011-11-30T12:50:30Z</time>
      </trkpt>
      <trkpt lat="45.32904" lon="5.93086">
        <ele>267</ele>
        <time>2011-11-30T12:50:33Z</time>
      </trkpt>
      <trkpt lat="45.32896" lon="5.93099">
        <ele>269</ele>
        <time>2011-11-30T12:50:35Z</time>
      </trkpt>
      <trkpt lat="45.32884" lon="5.9311">
        <ele>271</ele>
        <time>2011-11-30T12:50:37Z</time>
      </trkpt>
      <trkpt lat="45.32874" lon="5.93117">
        <ele>271</ele>
        <time>2011-11-30T12:50:39Z</time>
      </trkpt>
      <trkpt lat="45.32864" lon="5.93121">
        <ele>272</ele>
        <time>2011-11-30T12:50:42Z</time>
      </trkpt>
      <trkpt lat="45.32851" lon="5.93127">
        <ele>282</ele>
        <time>2011-11-30T12:50:46Z</time>
      </trkpt>
      <trkpt lat="45.32837" lon="5.93135">
        <ele>282</ele>
        <time>2011-11-30T12:50:48Z</time>
      </trkpt>
      <trkpt lat="45.32787" lon="5.93158">
        <ele>266</ele>
        <time>2011-11-30T12:50:55Z</time>
      </trkpt>
      <trkpt lat="45.32777" lon="5.93168">
        <ele>270</ele>
        <time>2011-11-30T12:50:57Z</time>
      </trkpt>
      <trkpt lat="45.32772" lon="5.93174">
        <ele>270</ele>
        <time>2011-11-30T12:50:58Z</time>
      </trkpt>
      <trkpt lat="45.32767" lon="5.93179">
        <ele>270</ele>
        <time>2011-11-30T12:50:59Z</time>
      </trkpt>
      <trkpt lat="45.32763" lon="5.93184">
        <ele>270</ele>
        <time>2011-11-30T12:51:00Z</time>
      </trkpt>
      <trkpt lat="45.32754" lon="5.93194">
        <ele>270</ele>
        <time>2011-11-30T12:51:02Z</time>
      </trkpt>
      <trkpt lat="45.32733" lon="5.93205">
        <ele>262</ele>
        <time>2011-11-30T12:51:06Z</time>
      </trkpt>
      <trkpt lat="45.32705" lon="5.93228">
        <ele>272</ele>
        <time>2011-11-30T12:51:11Z</time>
      </trkpt>
      <trkpt lat="45.32701" lon="5.93236">
        <ele>271</ele>
        <time>2011-11-30T12:51:12Z</time>
      </trkpt>
      <trkpt lat="45.32693" lon="5.93253">
        <ele>273</ele>
        <time>2011-11-30T12:51:14Z</time>
      </trkpt>
      <trkpt lat="45.32689" lon="5.93261">
        <ele>271</ele>
        <time>2011-11-30T12:51:15Z</time>
      </trkpt>
      <trkpt lat="45.32685" lon="5.93269">
        <ele>271</ele>
        <time>2011-11-30T12:51:16Z</time>
      </trkpt>
      <trkpt lat="45.32677" lon="5.93286">
        <ele>268</ele>
        <time>2011-11-30T12:51:18Z</time>
      </trkpt>
      <trkpt lat="45.32673" lon="5.93294">
        <ele>268</ele>
        <time>2011-11-30T12:51:19Z</time>
      </trkpt>
      <trkpt lat="45.32669" lon="5.93302">
        <ele>269</ele>
        <time>2011-11-30T12:51:20Z</time>
      </trkpt>
      <trkpt lat="45.32665" lon="5.9331">
        <ele>267</ele>
        <time>2011-11-30T12:51:21Z</time>
      </trkpt>
      <trkpt lat="45.32656" lon="5.93328">
        <ele>268</ele>
        <time>2011-11-30T12:51:23Z</time>
      </trkpt>
      <trkpt lat="45.32649" lon="5.93341">
        <ele>268</ele>
        <time>2011-11-30T12:51:25Z</time>
      </trkpt>
      <trkpt lat="45.32643" lon="5.93352">
        <ele>270</ele>
        <time>2011-11-30T12:51:27Z</time>
      </trkpt>
      <trkpt lat="45.32636" lon="5.93362">
        <ele>266</ele>
        <time>2011-11-30T12:51:29Z</time>
      </trkpt>
      <trkpt lat="45.32623" lon="5.93358">
        <ele>266</ele>
        <time>2011-11-30T12:51:32Z</time>
      </trkpt>
      <trkpt lat="45.32616" lon="5.9335">
        <ele>264</ele>
        <time>2011-11-30T12:51:34Z</time>
      </trkpt>
      <trkpt lat="45.32609" lon="5.9334">
        <ele>266</ele>
        <time>2011-11-30T12:51:36Z</time>
      </trkpt>
      <trkpt lat="45.32602" lon="5.93327">
        <ele>264</ele>
        <time>2011-11-30T12:51:38Z</time>
      </trkpt>
      <trkpt lat="45.32594" lon="5.93311">
        <ele>263</ele>
        <time>2011-11-30T12:51:40Z</time>
      </trkpt>
      <trkpt lat="45.32585" lon="5.93294">
        <ele>261</ele>
        <time>2011-11-30T12:51:42Z</time>
      </trkpt>
      <trkpt lat="45.32576" lon="5.93279">
        <ele>262</ele>
        <time>2011-11-30T12:51:44Z</time>
      </trkpt>
      <trkpt lat="45.32565" lon="5.93263">
        <ele>260</ele>
        <time>2011-11-30T12:51:46Z</time>
      </trkpt>
      <trkpt lat="45.32544" lon="5.93236">
        <ele>260</ele>
        <time>2011-11-30T12:51:50Z</time>
      </trkpt>
      <trkpt lat="45.32531" lon="5.93224">
        <ele>261</ele>
        <time>2011-11-30T12:51:52Z</time>
      </trkpt>
      <trkpt lat="45.32518" lon="5.93211">
        <ele>264</ele>
        <time>2011-11-30T12:51:54Z</time>
      </trkpt>
      <trkpt lat="45.32511" lon="5.93205">
        <ele>263</ele>
        <time>2011-11-30T12:51:55Z</time>
      </trkpt>
      <trkpt lat="45.32505" lon="5.93199">
        <ele>261</ele>
        <time>2011-11-30T12:51:56Z</time>
      </trkpt>
      <trkpt lat="45.32498" lon="5.93193">
        <ele>261</ele>
        <time>2011-11-30T12:51:57Z</time>
      </trkpt>
      <trkpt lat="45.32484" lon="5.93182">
        <ele>261</ele>
        <time>2011-11-30T12:51:59Z</time>
      </trkpt>
      <trkpt lat="45.32478" lon="5.93176">
        <ele>260</ele>
        <time>2011-11-30T12:52:00Z</time>
      </trkpt>
      <trkpt lat="45.32471" lon="5.9317">
        <ele>261</ele>
        <time>2011-11-30T12:52:01Z</time>
      </trkpt>
      <trkpt lat="45.32457" lon="5.93159">
        <ele>262</ele>
        <time>2011-11-30T12:52:03Z</time>
      </trkpt>
      <trkpt lat="45.3245" lon="5.93153">
        <ele>263</ele>
        <time>2011-11-30T12:52:04Z</time>
      </trkpt>
      <trkpt lat="45.32443" lon="5.93147">
        <ele>262</ele>
        <time>2011-11-30T12:52:05Z</time>
      </trkpt>
      <trkpt lat="45.32436" lon="5.93142">
        <ele>263</ele>
        <time>2011-11-30T12:52:06Z</time>
      </trkpt>
      <trkpt lat="45.32429" lon="5.93136">
        <ele>262</ele>
        <time>2011-11-30T12:52:07Z</time>
      </trkpt>
      <trkpt lat="45.32422" lon="5.93131">
        <ele>259</ele>
        <time>2011-11-30T12:52:08Z</time>
      </trkpt>
      <trkpt lat="45.32392" lon="5.93107">
        <ele>256</ele>
        <time>2011-11-30T12:52:12Z</time>
      </trkpt>
      <trkpt lat="45.32385" lon="5.93101">
        <ele>257</ele>
        <time>2011-11-30T12:52:13Z</time>
      </trkpt>
      <trkpt lat="45.32378" lon="5.93094">
        <ele>257</ele>
        <time>2011-11-30T12:52:14Z</time>
      </trkpt>
      <trkpt lat="45.32348" lon="5.9307">
        <ele>253</ele>
        <time>2011-11-30T12:52:18Z</time>
      </trkpt>
      <trkpt lat="45.32332" lon="5.93057">
        <ele>255</ele>
        <time>2011-11-30T12:52:20Z</time>
      </trkpt>
      <trkpt lat="45.32324" lon="5.9305">
        <ele>255</ele>
        <time>2011-11-30T12:52:21Z</time>
      </trkpt>
      <trkpt lat="45.32309" lon="5.93037">
        <ele>256</ele>
        <time>2011-11-30T12:52:23Z</time>
      </trkpt>
      <trkpt lat="45.32302" lon="5.93031">
        <ele>255</ele>
        <time>2011-11-30T12:52:24Z</time>
      </trkpt>
      <trkpt lat="45.32287" lon="5.93018">
        <ele>251</ele>
        <time>2011-11-30T12:52:26Z</time>
      </trkpt>
      <trkpt lat="45.32279" lon="5.93012">
        <ele>250</ele>
        <time>2011-11-30T12:52:27Z</time>
      </trkpt>
      <trkpt lat="45.32271" lon="5.93006">
        <ele>251</ele>
        <time>2011-11-30T12:52:28Z</time>
      </trkpt>
      <trkpt lat="45.32264" lon="5.93">
        <ele>253</ele>
        <time>2011-11-30T12:52:29Z</time>
      </trkpt>
      <trkpt lat="45.32249" lon="5.92987">
        <ele>254</ele>
        <time>2011-11-30T12:52:31Z</time>
      </trkpt>
      <trkpt lat="45.32241" lon="5.9298">
        <ele>254</ele>
        <time>2011-11-30T12:52:32Z</time>
      </trkpt>
      <trkpt lat="45.32233" lon="5.92974">
        <ele>253</ele>
        <time>2011-11-30T12:52:33Z</time>
      </trkpt>
      <trkpt lat="45.32225" lon="5.92968">
        <ele>252</ele>
        <time>2011-11-30T12:52:34Z</time>
      </trkpt>
      <trkpt lat="45.32217" lon="5.92962">
        <ele>253</ele>
        <time>2011-11-30T12:52:35Z</time>
      </trkpt>
      <trkpt lat="45.32209" lon="5.92956">
        <ele>253</ele>
        <time>2011-11-30T12:52:36Z</time>
      </trkpt>
      <trkpt lat="45.32193" lon="5.92943">
        <ele>250</ele>
        <time>2011-11-30T12:52:38Z</time>
      </trkpt>
      <trkpt lat="45.32171" lon="5.92925">
        <ele>253</ele>
        <time>2011-11-30T12:52:41Z</time>
      </trkpt>
      <trkpt lat="45.32163" lon="5.92919">
        <ele>251</ele>
        <time>2011-11-30T12:52:42Z</time>
      </trkpt>
      <trkpt lat="45.32141" lon="5.92899">
        <ele>251</ele>
        <time>2011-11-30T12:52:45Z</time>
      </trkpt>
      <trkpt lat="45.32127" lon="5.92888">
        <ele>253</ele>
        <time>2011-11-30T12:52:47Z</time>
      </trkpt>
      <trkpt lat="45.32107" lon="5.92872">
        <ele>251</ele>
        <time>2011-11-30T12:52:50Z</time>
      </trkpt>
      <trkpt lat="45.321" lon="5.92866">
        <ele>251</ele>
        <time>2011-11-30T12:52:51Z</time>
      </trkpt>
      <trkpt lat="45.32087" lon="5.92853">
        <ele>254</ele>
        <time>2011-11-30T12:52:53Z</time>
      </trkpt>
      <trkpt lat="45.3208" lon="5.92847">
        <ele>254</ele>
        <time>2011-11-30T12:52:54Z</time>
      </trkpt>
      <trkpt lat="45.32074" lon="5.92841">
        <ele>253</ele>
        <time>2011-11-30T12:52:55Z</time>
      </trkpt>
      <trkpt lat="45.32069" lon="5.92835">
        <ele>253</ele>
        <time>2011-11-30T12:52:56Z</time>
      </trkpt>
      <trkpt lat="45.32064" lon="5.92828">
        <ele>252</ele>
        <time>2011-11-30T12:52:57Z</time>
      </trkpt>
      <trkpt lat="45.32059" lon="5.9282">
        <ele>252</ele>
        <time>2011-11-30T12:52:58Z</time>
      </trkpt>
      <trkpt lat="45.32054" lon="5.92811">
        <ele>251</ele>
        <time>2011-11-30T12:52:59Z</time>
      </trkpt>
      <trkpt lat="45.32049" lon="5.92801">
        <ele>251</ele>
        <time>2011-11-30T12:53:00Z</time>
      </trkpt>
      <trkpt lat="45.32035" lon="5.92773">
        <ele>254</ele>
        <time>2011-11-30T12:53:03Z</time>
      </trkpt>
      <trkpt lat="45.32026" lon="5.92757">
        <ele>246</ele>
        <time>2011-11-30T12:53:05Z</time>
      </trkpt>
      <trkpt lat="45.32011" lon="5.92731">
        <ele>248</ele>
        <time>2011-11-30T12:53:09Z</time>
      </trkpt>
      <trkpt lat="45.32003" lon="5.92715">
        <ele>251</ele>
        <time>2011-11-30T12:53:11Z</time>
      </trkpt>
      <trkpt lat="45.31998" lon="5.92706">
        <ele>251</ele>
        <time>2011-11-30T12:53:12Z</time>
      </trkpt>
      <trkpt lat="45.31994" lon="5.92697">
        <ele>252</ele>
        <time>2011-11-30T12:53:13Z</time>
      </trkpt>
      <trkpt lat="45.3199" lon="5.92689">
        <ele>251</ele>
        <time>2011-11-30T12:53:14Z</time>
      </trkpt>
      <trkpt lat="45.31983" lon="5.92671">
        <ele>253</ele>
        <time>2011-11-30T12:53:16Z</time>
      </trkpt>
      <trkpt lat="45.31974" lon="5.92659">
        <ele>252</ele>
        <time>2011-11-30T12:53:18Z</time>
      </trkpt>
      <trkpt lat="45.31968" lon="5.92653">
        <ele>257</ele>
        <time>2011-11-30T12:53:19Z</time>
      </trkpt>
      <trkpt lat="45.31923" lon="5.92639">
        <ele>244</ele>
        <time>2011-11-30T12:53:27Z</time>
      </trkpt>
      <trkpt lat="45.3191" lon="5.92638">
        <ele>244</ele>
        <time>2011-11-30T12:53:29Z</time>
      </trkpt>
      <trkpt lat="45.31903" lon="5.92637">
        <ele>245</ele>
        <time>2011-11-30T12:53:30Z</time>
      </trkpt>
      <trkpt lat="45.31874" lon="5.92621">
        <ele>255</ele>
        <time>2011-11-30T12:53:35Z</time>
      </trkpt>
      <trkpt lat="45.31868" lon="5.92618">
        <ele>253</ele>
        <time>2011-11-30T12:53:36Z</time>
      </trkpt>
      <trkpt lat="45.31849" lon="5.92608">
        <ele>257</ele>
        <time>2011-11-30T12:53:39Z</time>
      </trkpt>
      <trkpt lat="45.31838" lon="5.92601">
        <ele>256</ele>
        <time>2011-11-30T12:53:41Z</time>
      </trkpt>
      <trkpt lat="45.31826" lon="5.92595">
        <ele>256</ele>
        <time>2011-11-30T12:53:43Z</time>
      </trkpt>
      <trkpt lat="45.31815" lon="5.92589">
        <ele>254</ele>
        <time>2011-11-30T12:53:45Z</time>
      </trkpt>
      <trkpt lat="45.31805" lon="5.92583">
        <ele>254</ele>
        <time>2011-11-30T12:53:47Z</time>
      </trkpt>
      <trkpt lat="45.31795" lon="5.92577">
        <ele>256</ele>
        <time>2011-11-30T12:53:49Z</time>
      </trkpt>
      <trkpt lat="45.3179" lon="5.92573">
        <ele>256</ele>
        <time>2011-11-30T12:53:50Z</time>
      </trkpt>
      <trkpt lat="45.31784" lon="5.92568">
        <ele>256</ele>
        <time>2011-11-30T12:53:51Z</time>
      </trkpt>
      <trkpt lat="45.31773" lon="5.92558">
        <ele>259</ele>
        <time>2011-11-30T12:53:53Z</time>
      </trkpt>
      <trkpt lat="45.31756" lon="5.92545">
        <ele>259</ele>
        <time>2011-11-30T12:53:56Z</time>
      </trkpt>
      <trkpt lat="45.3174" lon="5.92532">
        <ele>262</ele>
        <time>2011-11-30T12:53:59Z</time>
      </trkpt>
      <trkpt lat="45.31718" lon="5.92516">
        <ele>259</ele>
        <time>2011-11-30T12:54:03Z</time>
      </trkpt>
      <trkpt lat="45.31714" lon="5.92512">
        <ele>255</ele>
        <time>2011-11-30T12:54:04Z</time>
      </trkpt>
      <trkpt lat="45.31696" lon="5.925">
        <ele>261</ele>
        <time>2011-11-30T12:54:07Z</time>
      </trkpt>
      <trkpt lat="45.3169" lon="5.92495">
        <ele>260</ele>
        <time>2011-11-30T12:54:08Z</time>
      </trkpt>
      <trkpt lat="45.31666" lon="5.92478">
        <ele>256</ele>
        <time>2011-11-30T12:54:12Z</time>
      </trkpt>
      <trkpt lat="45.3166" lon="5.92473">
        <ele>257</ele>
        <time>2011-11-30T12:54:13Z</time>
      </trkpt>
      <trkpt lat="45.31654" lon="5.92469">
        <ele>255</ele>
        <time>2011-11-30T12:54:14Z</time>
      </trkpt>
      <trkpt lat="45.31647" lon="5.92464">
        <ele>255</ele>
        <time>2011-11-30T12:54:15Z</time>
      </trkpt>
      <trkpt lat="45.31641" lon="5.9246">
        <ele>257</ele>
        <time>2011-11-30T12:54:16Z</time>
      </trkpt>
      <trkpt lat="45.31634" lon="5.92455">
        <ele>256</ele>
        <time>2011-11-30T12:54:17Z</time>
      </trkpt>
      <trkpt lat="45.31628" lon="5.92451">
        <ele>256</ele>
        <time>2011-11-30T12:54:18Z</time>
      </trkpt>
      <trkpt lat="45.31615" lon="5.92442">
        <ele>259</ele>
        <time>2011-11-30T12:54:20Z</time>
      </trkpt>
      <trkpt lat="45.31608" lon="5.92437">
        <ele>259</ele>
        <time>2011-11-30T12:54:21Z</time>
      </trkpt>
      <trkpt lat="45.31602" lon="5.92433">
        <ele>258</ele>
        <time>2011-11-30T12:54:22Z</time>
      </trkpt>
      <trkpt lat="45.31595" lon="5.92429">
        <ele>259</ele>
        <time>2011-11-30T12:54:23Z</time>
      </trkpt>
      <trkpt lat="45.31582" lon="5.92421">
        <ele>258</ele>
        <time>2011-11-30T12:54:25Z</time>
      </trkpt>
      <trkpt lat="45.31576" lon="5.92417">
        <ele>257</ele>
        <time>2011-11-30T12:54:26Z</time>
      </trkpt>
      <trkpt lat="45.31555" lon="5.92404">
        <ele>251</ele>
        <time>2011-11-30T12:54:30Z</time>
      </trkpt>
      <trkpt lat="45.31548" lon="5.924">
        <ele>251</ele>
        <time>2011-11-30T12:54:32Z</time>
      </trkpt>
      <trkpt lat="45.31532" lon="5.92389">
        <ele>257</ele>
        <time>2011-11-30T12:54:38Z</time>
      </trkpt>
      <trkpt lat="45.31524" lon="5.92386">
        <ele>252</ele>
        <time>2011-11-30T12:54:40Z</time>
      </trkpt>
      <trkpt lat="45.31517" lon="5.92383">
        <ele>252</ele>
        <time>2011-11-30T12:54:41Z</time>
      </trkpt>
      <trkpt lat="45.31513" lon="5.9238">
        <ele>254</ele>
        <time>2011-11-30T12:54:42Z</time>
      </trkpt>
      <trkpt lat="45.31508" lon="5.92378">
        <ele>253</ele>
        <time>2011-11-30T12:54:43Z</time>
      </trkpt>
      <trkpt lat="45.31502" lon="5.92374">
        <ele>250</ele>
        <time>2011-11-30T12:54:44Z</time>
      </trkpt>
      <trkpt lat="45.31485" lon="5.92364">
        <ele>257</ele>
        <time>2011-11-30T12:54:47Z</time>
      </trkpt>
      <trkpt lat="45.31472" lon="5.92357">
        <ele>256</ele>
        <time>2011-11-30T12:54:49Z</time>
      </trkpt>
      <trkpt lat="45.31458" lon="5.92348">
        <ele>259</ele>
        <time>2011-11-30T12:54:51Z</time>
      </trkpt>
      <trkpt lat="45.31435" lon="5.92333">
        <ele>259</ele>
        <time>2011-11-30T12:54:54Z</time>
      </trkpt>
      <trkpt lat="45.31428" lon="5.92328">
        <ele>263</ele>
        <time>2011-11-30T12:54:55Z</time>
      </trkpt>
      <trkpt lat="45.31414" lon="5.92316">
        <ele>261</ele>
        <time>2011-11-30T12:54:57Z</time>
      </trkpt>
      <trkpt lat="45.31398" lon="5.92299">
        <ele>262</ele>
        <time>2011-11-30T12:54:59Z</time>
      </trkpt>
      <trkpt lat="45.31391" lon="5.92291">
        <ele>256</ele>
        <time>2011-11-30T12:55:00Z</time>
      </trkpt>
      <trkpt lat="45.31384" lon="5.92283">
        <ele>261</ele>
        <time>2011-11-30T12:55:01Z</time>
      </trkpt>
      <trkpt lat="45.31377" lon="5.92274">
        <ele>260</ele>
        <time>2011-11-30T12:55:02Z</time>
      </trkpt>
      <trkpt lat="45.31356" lon="5.92243">
        <ele>256</ele>
        <time>2011-11-30T12:55:05Z</time>
      </trkpt>
      <trkpt lat="45.3134" lon="5.92213">
        <ele>256</ele>
        <time>2011-11-30T12:55:08Z</time>
      </trkpt>
      <trkpt lat="45.3133" lon="5.92192">
        <ele>258</ele>
        <time>2011-11-30T12:55:10Z</time>
      </trkpt>
      <trkpt lat="45.31325" lon="5.9218">
        <ele>255</ele>
        <time>2011-11-30T12:55:11Z</time>
      </trkpt>
      <trkpt lat="45.3132" lon="5.9217">
        <ele>255</ele>
        <time>2011-11-30T12:55:12Z</time>
      </trkpt>
      <trkpt lat="45.3131" lon="5.92152">
        <ele>259</ele>
        <time>2011-11-30T12:55:14Z</time>
      </trkpt>
      <trkpt lat="45.3125" lon="5.92019">
        <ele>259</ele>
        <time>2011-11-30T12:55:26Z</time>
      </trkpt>
      <trkpt lat="45.3124" lon="5.91999">
        <ele>256</ele>
        <time>2011-11-30T12:55:28Z</time>
      </trkpt>
      <trkpt lat="45.31235" lon="5.9199">
        <ele>258</ele>
        <time>2011-11-30T12:55:29Z</time>
      </trkpt>
      <trkpt lat="45.3122" lon="5.91959">
        <ele>258</ele>
        <time>2011-11-30T12:55:32Z</time>
      </trkpt>
      <trkpt lat="45.31201" lon="5.91929">
        <ele>253</ele>
        <time>2011-11-30T12:55:35Z</time>
      </trkpt>
      <trkpt lat="45.31181" lon="5.91901">
        <ele>253</ele>
        <time>2011-11-30T12:55:38Z</time>
      </trkpt>
      <trkpt lat="45.31167" lon="5.91883">
        <ele>252</ele>
        <time>2011-11-30T12:55:40Z</time>
      </trkpt>
      <trkpt lat="45.31159" lon="5.91874">
        <ele>253</ele>
        <time>2011-11-30T12:55:41Z</time>
      </trkpt>
      <trkpt lat="45.31144" lon="5.91854">
        <ele>251</ele>
        <time>2011-11-30T12:55:43Z</time>
      </trkpt>
      <trkpt lat="45.31136" lon="5.91843">
        <ele>246</ele>
        <time>2011-11-30T12:55:44Z</time>
      </trkpt>
      <trkpt lat="45.31129" lon="5.91834">
        <ele>247</ele>
        <time>2011-11-30T12:55:45Z</time>
      </trkpt>
      <trkpt lat="45.31116" lon="5.91817">
        <ele>242</ele>
        <time>2011-11-30T12:55:47Z</time>
      </trkpt>
      <trkpt lat="45.31101" lon="5.91795">
        <ele>247</ele>
        <time>2011-11-30T12:55:49Z</time>
      </trkpt>
      <trkpt lat="45.31085" lon="5.91773">
        <ele>242</ele>
        <time>2011-11-30T12:55:51Z</time>
      </trkpt>
      <trkpt lat="45.31077" lon="5.91763">
        <ele>246</ele>
        <time>2011-11-30T12:55:52Z</time>
      </trkpt>
      <trkpt lat="45.31069" lon="5.91753">
        <ele>244</ele>
        <time>2011-11-30T12:55:53Z</time>
      </trkpt>
      <trkpt lat="45.3106" lon="5.91742">
        <ele>244</ele>
        <time>2011-11-30T12:55:54Z</time>
      </trkpt>
      <trkpt lat="45.31052" lon="5.91731">
        <ele>250</ele>
        <time>2011-11-30T12:55:55Z</time>
      </trkpt>
      <trkpt lat="45.31035" lon="5.91709">
        <ele>253</ele>
        <time>2011-11-30T12:55:57Z</time>
      </trkpt>
      <trkpt lat="45.31027" lon="5.91698">
        <ele>249</ele>
        <time>2011-11-30T12:55:58Z</time>
      </trkpt>
      <trkpt lat="45.31018" lon="5.91686">
        <ele>252</ele>
        <time>2011-11-30T12:55:59Z</time>
      </trkpt>
      <trkpt lat="45.31011" lon="5.91676">
        <ele>249</ele>
        <time>2011-11-30T12:56:00Z</time>
      </trkpt>
      <trkpt lat="45.31004" lon="5.91667">
        <ele>251</ele>
        <time>2011-11-30T12:56:01Z</time>
      </trkpt>
      <trkpt lat="45.30996" lon="5.91657">
        <ele>247</ele>
        <time>2011-11-30T12:56:02Z</time>
      </trkpt>
      <trkpt lat="45.30988" lon="5.91647">
        <ele>247</ele>
        <time>2011-11-30T12:56:03Z</time>
      </trkpt>
      <trkpt lat="45.30981" lon="5.91637">
        <ele>244</ele>
        <time>2011-11-30T12:56:04Z</time>
      </trkpt>
      <trkpt lat="45.30974" lon="5.91628">
        <ele>247</ele>
        <time>2011-11-30T12:56:05Z</time>
      </trkpt>
      <trkpt lat="45.30966" lon="5.91618">
        <ele>247</ele>
        <time>2011-11-30T12:56:06Z</time>
      </trkpt>
      <trkpt lat="45.30958" lon="5.91607">
        <ele>248</ele>
        <time>2011-11-30T12:56:07Z</time>
      </trkpt>
      <trkpt lat="45.30928" lon="5.9157">
        <ele>248</ele>
        <time>2011-11-30T12:56:11Z</time>
      </trkpt>
      <trkpt lat="45.3092" lon="5.9156">
        <ele>247</ele>
        <time>2011-11-30T12:56:12Z</time>
      </trkpt>
      <trkpt lat="45.30913" lon="5.91551">
        <ele>248</ele>
        <time>2011-11-30T12:56:13Z</time>
      </trkpt>
      <trkpt lat="45.30899" lon="5.91531">
        <ele>248</ele>
        <time>2011-11-30T12:56:15Z</time>
      </trkpt>
      <trkpt lat="45.30891" lon="5.9152">
        <ele>247</ele>
        <time>2011-11-30T12:56:16Z</time>
      </trkpt>
      <trkpt lat="45.30883" lon="5.9151">
        <ele>250</ele>
        <time>2011-11-30T12:56:17Z</time>
      </trkpt>
      <trkpt lat="45.30869" lon="5.91491">
        <ele>241</ele>
        <time>2011-11-30T12:56:19Z</time>
      </trkpt>
      <trkpt lat="45.30862" lon="5.91481">
        <ele>242</ele>
        <time>2011-11-30T12:56:20Z</time>
      </trkpt>
      <trkpt lat="45.3084" lon="5.91451">
        <ele>242</ele>
        <time>2011-11-30T12:56:23Z</time>
      </trkpt>
      <trkpt lat="45.30834" lon="5.9144">
        <ele>241</ele>
        <time>2011-11-30T12:56:24Z</time>
      </trkpt>
      <trkpt lat="45.30821" lon="5.91419">
        <ele>244</ele>
        <time>2011-11-30T12:56:26Z</time>
      </trkpt>
      <trkpt lat="45.30814" lon="5.91409">
        <ele>244</ele>
        <time>2011-11-30T12:56:27Z</time>
      </trkpt>
      <trkpt lat="45.30807" lon="5.91399">
        <ele>242</ele>
        <time>2011-11-30T12:56:28Z</time>
      </trkpt>
      <trkpt lat="45.30785" lon="5.91371">
        <ele>241</ele>
        <time>2011-11-30T12:56:31Z</time>
      </trkpt>
      <trkpt lat="45.30771" lon="5.91354">
        <ele>241</ele>
        <time>2011-11-30T12:56:33Z</time>
      </trkpt>
      <trkpt lat="45.30763" lon="5.91346">
        <ele>240</ele>
        <time>2011-11-30T12:56:34Z</time>
      </trkpt>
      <trkpt lat="45.30756" lon="5.91337">
        <ele>240</ele>
        <time>2011-11-30T12:56:35Z</time>
      </trkpt>
      <trkpt lat="45.30743" lon="5.9132">
        <ele>240</ele>
        <time>2011-11-30T12:56:37Z</time>
      </trkpt>
      <trkpt lat="45.30736" lon="5.91311">
        <ele>242</ele>
        <time>2011-11-30T12:56:38Z</time>
      </trkpt>
      <trkpt lat="45.30725" lon="5.91294">
        <ele>240</ele>
        <time>2011-11-30T12:56:40Z</time>
      </trkpt>
      <trkpt lat="45.30694" lon="5.91244">
        <ele>240</ele>
        <time>2011-11-30T12:56:46Z</time>
      </trkpt>
      <trkpt lat="45.30685" lon="5.91232">
        <ele>239</ele>
        <time>2011-11-30T12:56:48Z</time>
      </trkpt>
      <trkpt lat="45.30675" lon="5.91218">
        <ele>242</ele>
        <time>2011-11-30T12:56:50Z</time>
      </trkpt>
      <trkpt lat="45.30665" lon="5.91204">
        <ele>240</ele>
        <time>2011-11-30T12:56:52Z</time>
      </trkpt>
      <trkpt lat="45.3066" lon="5.91196">
        <ele>242</ele>
        <time>2011-11-30T12:56:53Z</time>
      </trkpt>
      <trkpt lat="45.30651" lon="5.91179">
        <ele>242</ele>
        <time>2011-11-30T12:56:55Z</time>
      </trkpt>
      <trkpt lat="45.30644" lon="5.9116">
        <ele>242</ele>
        <time>2011-11-30T12:56:57Z</time>
      </trkpt>
      <trkpt lat="45.30633" lon="5.91131">
        <ele>240</ele>
        <time>2011-11-30T12:57:00Z</time>
      </trkpt>
      <trkpt lat="45.3063" lon="5.91122">
        <ele>240</ele>
        <time>2011-11-30T12:57:01Z</time>
      </trkpt>
      <trkpt lat="45.30627" lon="5.91112">
        <ele>238</ele>
        <time>2011-11-30T12:57:02Z</time>
      </trkpt>
      <trkpt lat="45.30624" lon="5.91103">
        <ele>238</ele>
        <time>2011-11-30T12:57:03Z</time>
      </trkpt>
      <trkpt lat="45.30621" lon="5.91094">
        <ele>239</ele>
        <time>2011-11-30T12:57:04Z</time>
      </trkpt>
      <trkpt lat="45.30618" lon="5.91084">
        <ele>239</ele>
        <time>2011-11-30T12:57:05Z</time>
      </trkpt>
      <trkpt lat="45.30605" lon="5.91048">
        <ele>240</ele>
        <time>2011-11-30T12:57:09Z</time>
      </trkpt>
      <trkpt lat="45.30597" lon="5.91034">
        <ele>239</ele>
        <time>2011-11-30T12:57:11Z</time>
      </trkpt>
      <trkpt lat="45.30593" lon="5.91029">
        <ele>240</ele>
        <time>2011-11-30T12:57:12Z</time>
      </trkpt>
      <trkpt lat="45.30588" lon="5.91021">
        <ele>240</ele>
        <time>2011-11-30T12:57:13Z</time>
      </trkpt>
      <trkpt lat="45.30584" lon="5.91013">
        <ele>239</ele>
        <time>2011-11-30T12:57:14Z</time>
      </trkpt>
      <trkpt lat="45.3057" lon="5.90987">
        <ele>242</ele>
        <time>2011-11-30T12:57:17Z</time>
      </trkpt>
      <trkpt lat="45.30566" lon="5.90978">
        <ele>241</ele>
        <time>2011-11-30T12:57:18Z</time>
      </trkpt>
      <trkpt lat="45.30561" lon="5.90971">
        <ele>242</ele>
        <time>2011-11-30T12:57:19Z</time>
      </trkpt>
      <trkpt lat="45.30553" lon="5.90957">
        <ele>239</ele>
        <time>2011-11-30T12:57:21Z</time>
      </trkpt>
      <trkpt lat="45.30549" lon="5.90949">
        <ele>242</ele>
        <time>2011-11-30T12:57:22Z</time>
      </trkpt>
      <trkpt lat="45.30545" lon="5.9094">
        <ele>242</ele>
        <time>2011-11-30T12:57:23Z</time>
      </trkpt>
      <trkpt lat="45.3054" lon="5.90932">
        <ele>241</ele>
        <time>2011-11-30T12:57:24Z</time>
      </trkpt>
      <trkpt lat="45.30536" lon="5.90923">
        <ele>243</ele>
        <time>2011-11-30T12:57:25Z</time>
      </trkpt>
      <trkpt lat="45.30531" lon="5.90914">
        <ele>242</ele>
        <time>2011-11-30T12:57:26Z</time>
      </trkpt>
      <trkpt lat="45.30526" lon="5.90904">
        <ele>243</ele>
        <time>2011-11-30T12:57:27Z</time>
      </trkpt>
      <trkpt lat="45.3052" lon="5.90895">
        <ele>242</ele>
        <time>2011-11-30T12:57:28Z</time>
      </trkpt>
      <trkpt lat="45.3051" lon="5.90876">
        <ele>246</ele>
        <time>2011-11-30T12:57:30Z</time>
      </trkpt>
      <trkpt lat="45.30505" lon="5.90866">
        <ele>245</ele>
        <time>2011-11-30T12:57:31Z</time>
      </trkpt>
      <trkpt lat="45.305" lon="5.90856">
        <ele>245</ele>
        <time>2011-11-30T12:57:32Z</time>
      </trkpt>
      <trkpt lat="45.30495" lon="5.90846">
        <ele>243</ele>
        <time>2011-11-30T12:57:33Z</time>
      </trkpt>
      <trkpt lat="45.3049" lon="5.90837">
        <ele>242</ele>
        <time>2011-11-30T12:57:34Z</time>
      </trkpt>
      <trkpt lat="45.30481" lon="5.90817">
        <ele>243</ele>
        <time>2011-11-30T12:57:36Z</time>
      </trkpt>
      <trkpt lat="45.30476" lon="5.90807">
        <ele>242</ele>
        <time>2011-11-30T12:57:37Z</time>
      </trkpt>
      <trkpt lat="45.30471" lon="5.90798">
        <ele>240</ele>
        <time>2011-11-30T12:57:38Z</time>
      </trkpt>
      <trkpt lat="45.30461" lon="5.90778">
        <ele>239</ele>
        <time>2011-11-30T12:57:40Z</time>
      </trkpt>
      <trkpt lat="45.30456" lon="5.90769">
        <ele>238</ele>
        <time>2011-11-30T12:57:41Z</time>
      </trkpt>
      <trkpt lat="45.3045" lon="5.90759">
        <ele>239</ele>
        <time>2011-11-30T12:57:42Z</time>
      </trkpt>
      <trkpt lat="45.3044" lon="5.90739">
        <ele>239</ele>
        <time>2011-11-30T12:57:44Z</time>
      </trkpt>
      <trkpt lat="45.30435" lon="5.90729">
        <ele>238</ele>
        <time>2011-11-30T12:57:45Z</time>
      </trkpt>
      <trkpt lat="45.3043" lon="5.9072">
        <ele>237</ele>
        <time>2011-11-30T12:57:46Z</time>
      </trkpt>
      <trkpt lat="45.3042" lon="5.90701">
        <ele>235</ele>
        <time>2011-11-30T12:57:48Z</time>
      </trkpt>
      <trkpt lat="45.30404" lon="5.90672">
        <ele>235</ele>
        <time>2011-11-30T12:57:51Z</time>
      </trkpt>
      <trkpt lat="45.30392" lon="5.90652">
        <ele>237</ele>
        <time>2011-11-30T12:57:53Z</time>
      </trkpt>
      <trkpt lat="45.30387" lon="5.90642">
        <ele>236</ele>
        <time>2011-11-30T12:57:54Z</time>
      </trkpt>
      <trkpt lat="45.30382" lon="5.90632">
        <ele>238</ele>
        <time>2011-11-30T12:57:55Z</time>
      </trkpt>
      <trkpt lat="45.30376" lon="5.90621">
        <ele>238</ele>
        <time>2011-11-30T12:57:56Z</time>
      </trkpt>
      <trkpt lat="45.30371" lon="5.90611">
        <ele>239</ele>
        <time>2011-11-30T12:57:57Z</time>
      </trkpt>
      <trkpt lat="45.30366" lon="5.90601">
        <ele>236</ele>
        <time>2011-11-30T12:57:58Z</time>
      </trkpt>
      <trkpt lat="45.30361" lon="5.90591">
        <ele>235</ele>
        <time>2011-11-30T12:57:59Z</time>
      </trkpt>
      <trkpt lat="45.30357" lon="5.90581">
        <ele>238</ele>
        <time>2011-11-30T12:58:00Z</time>
      </trkpt>
      <trkpt lat="45.30345" lon="5.90562">
        <ele>235</ele>
        <time>2011-11-30T12:58:02Z</time>
      </trkpt>
      <trkpt lat="45.30333" lon="5.90547">
        <ele>231</ele>
        <time>2011-11-30T12:58:04Z</time>
      </trkpt>
      <trkpt lat="45.30328" lon="5.90538">
        <ele>230</ele>
        <time>2011-11-30T12:58:05Z</time>
      </trkpt>
      <trkpt lat="45.30317" lon="5.90521">
        <ele>231</ele>
        <time>2011-11-30T12:58:07Z</time>
      </trkpt>
      <trkpt lat="45.3031" lon="5.90511">
        <ele>234</ele>
        <time>2011-11-30T12:58:08Z</time>
      </trkpt>
      <trkpt lat="45.30305" lon="5.90503">
        <ele>234</ele>
        <time>2011-11-30T12:58:09Z</time>
      </trkpt>
      <trkpt lat="45.30299" lon="5.90494">
        <ele>237</ele>
        <time>2011-11-30T12:58:10Z</time>
      </trkpt>
      <trkpt lat="45.30287" lon="5.90479">
        <ele>234</ele>
        <time>2011-11-30T12:58:12Z</time>
      </trkpt>
      <trkpt lat="45.30281" lon="5.90472">
        <ele>234</ele>
        <time>2011-11-30T12:58:13Z</time>
      </trkpt>
      <trkpt lat="45.30269" lon="5.90456">
        <ele>233</ele>
        <time>2011-11-30T12:58:15Z</time>
      </trkpt>
      <trkpt lat="45.30258" lon="5.90439">
        <ele>236</ele>
        <time>2011-11-30T12:58:17Z</time>
      </trkpt>
      <trkpt lat="45.30252" lon="5.9043">
        <ele>230</ele>
        <time>2011-11-30T12:58:18Z</time>
      </trkpt>
      <trkpt lat="45.30242" lon="5.90415">
        <ele>234</ele>
        <time>2011-11-30T12:58:20Z</time>
      </trkpt>
      <trkpt lat="45.30236" lon="5.90407">
        <ele>234</ele>
        <time>2011-11-30T12:58:21Z</time>
      </trkpt>
      <trkpt lat="45.30231" lon="5.90399">
        <ele>232</ele>
        <time>2011-11-30T12:58:22Z</time>
      </trkpt>
      <trkpt lat="45.3022" lon="5.90384">
        <ele>236</ele>
        <time>2011-11-30T12:58:24Z</time>
      </trkpt>
      <trkpt lat="45.30216" lon="5.90377">
        <ele>234</ele>
        <time>2011-11-30T12:58:25Z</time>
      </trkpt>
      <trkpt lat="45.3021" lon="5.9037">
        <ele>235</ele>
        <time>2011-11-30T12:58:26Z</time>
      </trkpt>
      <trkpt lat="45.30204" lon="5.90363">
        <ele>234</ele>
        <time>2011-11-30T12:58:27Z</time>
      </trkpt>
      <trkpt lat="45.30194" lon="5.9035">
        <ele>240</ele>
        <time>2011-11-30T12:58:29Z</time>
      </trkpt>
      <trkpt lat="45.30167" lon="5.9032">
        <ele>231</ele>
        <time>2011-11-30T12:58:35Z</time>
      </trkpt>
      <trkpt lat="45.30141" lon="5.90285">
        <ele>238</ele>
        <time>2011-11-30T12:58:39Z</time>
      </trkpt>
      <trkpt lat="45.30136" lon="5.90278">
        <ele>238</ele>
        <time>2011-11-30T12:58:40Z</time>
      </trkpt>
      <trkpt lat="45.30131" lon="5.90272">
        <ele>237</ele>
        <time>2011-11-30T12:58:41Z</time>
      </trkpt>
      <trkpt lat="45.30102" lon="5.90235">
        <ele>246</ele>
        <time>2011-11-30T12:58:47Z</time>
      </trkpt>
      <trkpt lat="45.30097" lon="5.90229">
        <ele>244</ele>
        <time>2011-11-30T12:58:48Z</time>
      </trkpt>
      <trkpt lat="45.30092" lon="5.90222">
        <ele>243</ele>
        <time>2011-11-30T12:58:49Z</time>
      </trkpt>
      <trkpt lat="45.30076" lon="5.902">
        <ele>247</ele>
        <time>2011-11-30T12:58:53Z</time>
      </trkpt>
      <trkpt lat="45.30071" lon="5.90193">
        <ele>248</ele>
        <time>2011-11-30T12:58:53Z</time>
      </trkpt>
      <trkpt lat="45.30061" lon="5.90181">
        <ele>247</ele>
        <time>2011-11-30T12:58:55Z</time>
      </trkpt>
      <trkpt lat="45.30041" lon="5.90156">
        <ele>253</ele>
        <time>2011-11-30T12:58:59Z</time>
      </trkpt>
      <trkpt lat="45.30019" lon="5.90127">
        <ele>245</ele>
        <time>2011-11-30T12:59:03Z</time>
      </trkpt>
      <trkpt lat="45.30009" lon="5.90113">
        <ele>251</ele>
        <time>2011-11-30T12:59:05Z</time>
      </trkpt>
      <trkpt lat="45.30004" lon="5.90106">
        <ele>251</ele>
        <time>2011-11-30T12:59:06Z</time>
      </trkpt>
      <trkpt lat="45.29999" lon="5.90099">
        <ele>249</ele>
        <time>2011-11-30T12:59:07Z</time>
      </trkpt>
      <trkpt lat="45.29994" lon="5.90094">
        <ele>250</ele>
        <time>2011-11-30T12:59:08Z</time>
      </trkpt>
      <trkpt lat="45.29989" lon="5.90088">
        <ele>250</ele>
        <time>2011-11-30T12:59:09Z</time>
      </trkpt>
      <trkpt lat="45.29984" lon="5.90082">
        <ele>249</ele>
        <time>2011-11-30T12:59:10Z</time>
      </trkpt>
      <trkpt lat="45.29979" lon="5.90075">
        <ele>250</ele>
        <time>2011-11-30T12:59:11Z</time>
      </trkpt>
      <trkpt lat="45.29968" lon="5.90061">
        <ele>249</ele>
        <time>2011-11-30T12:59:13Z</time>
      </trkpt>
      <trkpt lat="45.29957" lon="5.90048">
        <ele>251</ele>
        <time>2011-11-30T12:59:15Z</time>
      </trkpt>
      <trkpt lat="45.29952" lon="5.90041">
        <ele>250</ele>
        <time>2011-11-30T12:59:16Z</time>
      </trkpt>
      <trkpt lat="45.29937" lon="5.90024">
        <ele>252</ele>
        <time>2011-11-30T12:59:19Z</time>
      </trkpt>
      <trkpt lat="45.29932" lon="5.90018">
        <ele>251</ele>
        <time>2011-11-30T12:59:20Z</time>
      </trkpt>
      <trkpt lat="45.29924" lon="5.90007">
        <ele>251</ele>
        <time>2011-11-30T12:59:22Z</time>
      </trkpt>
      <trkpt lat="45.2992" lon="5.90002">
        <ele>252</ele>
        <time>2011-11-30T12:59:23Z</time>
      </trkpt>
      <trkpt lat="45.29909" lon="5.89987">
        <ele>248</ele>
        <time>2011-11-30T12:59:26Z</time>
      </trkpt>
      <trkpt lat="45.29902" lon="5.89978">
        <ele>249</ele>
        <time>2011-11-30T12:59:28Z</time>
      </trkpt>
      <trkpt lat="45.29896" lon="5.89971">
        <ele>248</ele>
        <time>2011-11-30T12:59:30Z</time>
      </trkpt>
      <trkpt lat="45.29893" lon="5.89965">
        <ele>247</ele>
        <time>2011-11-30T12:59:33Z</time>
      </trkpt>
      <trkpt lat="45.29889" lon="5.89959">
        <ele>247</ele>
        <time>2011-11-30T12:59:35Z</time>
      </trkpt>
      <trkpt lat="45.2988" lon="5.89948">
        <ele>240</ele>
        <time>2011-11-30T12:59:38Z</time>
      </trkpt>
      <trkpt lat="45.29874" lon="5.8994">
        <ele>247</ele>
        <time>2011-11-30T12:59:40Z</time>
      </trkpt>
      <trkpt lat="45.29868" lon="5.89931">
        <ele>247</ele>
        <time>2011-11-30T12:59:42Z</time>
      </trkpt>
      <trkpt lat="45.29864" lon="5.89927">
        <ele>246</ele>
        <time>2011-11-30T12:59:43Z</time>
      </trkpt>
      <trkpt lat="45.29859" lon="5.89921">
        <ele>246</ele>
        <time>2011-11-30T12:59:44Z</time>
      </trkpt>
      <trkpt lat="45.29848" lon="5.89909">
        <ele>249</ele>
        <time>2011-11-30T12:59:46Z</time>
      </trkpt>
      <trkpt lat="45.29832" lon="5.89893">
        <ele>248</ele>
        <time>2011-11-30T12:59:48Z</time>
      </trkpt>
      <trkpt lat="45.29824" lon="5.89886">
        <ele>244</ele>
        <time>2011-11-30T12:59:49Z</time>
      </trkpt>
      <trkpt lat="45.29807" lon="5.89871">
        <ele>255</ele>
        <time>2011-11-30T12:59:51Z</time>
      </trkpt>
      <trkpt lat="45.29797" lon="5.89864">
        <ele>253</ele>
        <time>2011-11-30T12:59:52Z</time>
      </trkpt>
      <trkpt lat="45.29778" lon="5.89849">
        <ele>255</ele>
        <time>2011-11-30T12:59:54Z</time>
      </trkpt>
      <trkpt lat="45.29767" lon="5.89841">
        <ele>251</ele>
        <time>2011-11-30T12:59:55Z</time>
      </trkpt>
      <trkpt lat="45.29758" lon="5.89832">
        <ele>253</ele>
        <time>2011-11-30T12:59:56Z</time>
      </trkpt>
      <trkpt lat="45.29749" lon="5.89825">
        <ele>253</ele>
        <time>2011-11-30T12:59:57Z</time>
      </trkpt>
      <trkpt lat="45.2974" lon="5.89819">
        <ele>251</ele>
        <time>2011-11-30T12:59:58Z</time>
      </trkpt>
      <trkpt lat="45.29731" lon="5.89812">
        <ele>252</ele>
        <time>2011-11-30T12:59:59Z</time>
      </trkpt>
      <trkpt lat="45.29722" lon="5.89805">
        <ele>249</ele>
        <time>2011-11-30T13:00:00Z</time>
      </trkpt>
      <trkpt lat="45.29713" lon="5.89798">
        <ele>250</ele>
        <time>2011-11-30T13:00:01Z</time>
      </trkpt>
      <trkpt lat="45.29704" lon="5.8979">
        <ele>250</ele>
        <time>2011-11-30T13:00:02Z</time>
      </trkpt>
      <trkpt lat="45.29694" lon="5.8978">
        <ele>253</ele>
        <time>2011-11-30T13:00:03Z</time>
      </trkpt>
      <trkpt lat="45.29685" lon="5.89771">
        <ele>253</ele>
        <time>2011-11-30T13:00:04Z</time>
      </trkpt>
      <trkpt lat="45.29676" lon="5.89763">
        <ele>255</ele>
        <time>2011-11-30T13:00:05Z</time>
      </trkpt>
      <trkpt lat="45.29667" lon="5.89755">
        <ele>250</ele>
        <time>2011-11-30T13:00:06Z</time>
      </trkpt>
      <trkpt lat="45.29632" lon="5.89721">
        <ele>251</ele>
        <time>2011-11-30T13:00:10Z</time>
      </trkpt>
      <trkpt lat="45.29624" lon="5.89712">
        <ele>250</ele>
        <time>2011-11-30T13:00:11Z</time>
      </trkpt>
      <trkpt lat="45.29617" lon="5.89703">
        <ele>250</ele>
        <time>2011-11-30T13:00:12Z</time>
      </trkpt>
      <trkpt lat="45.2961" lon="5.89694">
        <ele>251</ele>
        <time>2011-11-30T13:00:13Z</time>
      </trkpt>
      <trkpt lat="45.29591" lon="5.89684">
        <ele>250</ele>
        <time>2011-11-30T13:00:15Z</time>
      </trkpt>
      <trkpt lat="45.29582" lon="5.8968">
        <ele>245</ele>
        <time>2011-11-30T13:00:16Z</time>
      </trkpt>
      <trkpt lat="45.29549" lon="5.8965">
        <ele>255</ele>
        <time>2011-11-30T13:00:21Z</time>
      </trkpt>
      <trkpt lat="45.29535" lon="5.89638">
        <ele>250</ele>
        <time>2011-11-30T13:00:23Z</time>
      </trkpt>
      <trkpt lat="45.29528" lon="5.89632">
        <ele>251</ele>
        <time>2011-11-30T13:00:24Z</time>
      </trkpt>
      <trkpt lat="45.29521" lon="5.89626">
        <ele>254</ele>
        <time>2011-11-30T13:00:25Z</time>
      </trkpt>
      <trkpt lat="45.29514" lon="5.8962">
        <ele>251</ele>
        <time>2011-11-30T13:00:26Z</time>
      </trkpt>
      <trkpt lat="45.29507" lon="5.89615">
        <ele>252</ele>
        <time>2011-11-30T13:00:27Z</time>
      </trkpt>
      <trkpt lat="45.29493" lon="5.89604">
        <ele>253</ele>
        <time>2011-11-30T13:00:29Z</time>
      </trkpt>
      <trkpt lat="45.29485" lon="5.89598">
        <ele>252</ele>
        <time>2011-11-30T13:00:30Z</time>
      </trkpt>
      <trkpt lat="45.29479" lon="5.89592">
        <ele>252</ele>
        <time>2011-11-30T13:00:31Z</time>
      </trkpt>
      <trkpt lat="45.29462" lon="5.89577">
        <ele>259</ele>
        <time>2011-11-30T13:00:34Z</time>
      </trkpt>
      <trkpt lat="45.2945" lon="5.89565">
        <ele>253</ele>
        <time>2011-11-30T13:00:36Z</time>
      </trkpt>
      <trkpt lat="45.29444" lon="5.8956">
        <ele>255</ele>
        <time>2011-11-30T13:00:37Z</time>
      </trkpt>
      <trkpt lat="45.29438" lon="5.89554">
        <ele>255</ele>
        <time>2011-11-30T13:00:38Z</time>
      </trkpt>
      <trkpt lat="45.29432" lon="5.89548">
        <ele>258</ele>
        <time>2011-11-30T13:00:39Z</time>
      </trkpt>
      <trkpt lat="45.29422" lon="5.89535">
        <ele>253</ele>
        <time>2011-11-30T13:00:41Z</time>
      </trkpt>
      <trkpt lat="45.29416" lon="5.89529">
        <ele>256</ele>
        <time>2011-11-30T13:00:42Z</time>
      </trkpt>
      <trkpt lat="45.29399" lon="5.89513">
        <ele>256</ele>
        <time>2011-11-30T13:00:45Z</time>
      </trkpt>
      <trkpt lat="45.29387" lon="5.89499">
        <ele>253</ele>
        <time>2011-11-30T13:00:47Z</time>
      </trkpt>
      <trkpt lat="45.29381" lon="5.89493">
        <ele>255</ele>
        <time>2011-11-30T13:00:48Z</time>
      </trkpt>
      <trkpt lat="45.29375" lon="5.89487">
        <ele>255</ele>
        <time>2011-11-30T13:00:49Z</time>
      </trkpt>
      <trkpt lat="45.29368" lon="5.8948">
        <ele>248</ele>
        <time>2011-11-30T13:00:50Z</time>
      </trkpt>
      <trkpt lat="45.29362" lon="5.89474">
        <ele>248</ele>
        <time>2011-11-30T13:00:51Z</time>
      </trkpt>
      <trkpt lat="45.29356" lon="5.89467">
        <ele>248</ele>
        <time>2011-11-30T13:00:52Z</time>
      </trkpt>
      <trkpt lat="45.2935" lon="5.89461">
        <ele>249</ele>
        <time>2011-11-30T13:00:53Z</time>
      </trkpt>
      <trkpt lat="45.29344" lon="5.89455">
        <ele>249</ele>
        <time>2011-11-30T13:00:54Z</time>
      </trkpt>
      <trkpt lat="45.29338" lon="5.89449">
        <ele>248</ele>
        <time>2011-11-30T13:00:55Z</time>
      </trkpt>
      <trkpt lat="45.29332" lon="5.89442">
        <ele>249</ele>
        <time>2011-11-30T13:00:56Z</time>
      </trkpt>
      <trkpt lat="45.29326" lon="5.89436">
        <ele>249</ele>
        <time>2011-11-30T13:00:57Z</time>
      </trkpt>
      <trkpt lat="45.2932" lon="5.89429">
        <ele>249</ele>
        <time>2011-11-30T13:00:58Z</time>
      </trkpt>
      <trkpt lat="45.29307" lon="5.89415">
        <ele>248</ele>
        <time>2011-11-30T13:01:00Z</time>
      </trkpt>
      <trkpt lat="45.29294" lon="5.89401">
        <ele>250</ele>
        <time>2011-11-30T13:01:02Z</time>
      </trkpt>
      <trkpt lat="45.29288" lon="5.89394">
        <ele>251</ele>
        <time>2011-11-30T13:01:03Z</time>
      </trkpt>
      <trkpt lat="45.29281" lon="5.89387">
        <ele>251</ele>
        <time>2011-11-30T13:01:04Z</time>
      </trkpt>
      <trkpt lat="45.29275" lon="5.8938">
        <ele>253</ele>
        <time>2011-11-30T13:01:05Z</time>
      </trkpt>
      <trkpt lat="45.29261" lon="5.89365">
        <ele>254</ele>
        <time>2011-11-30T13:01:07Z</time>
      </trkpt>
      <trkpt lat="45.29255" lon="5.89357">
        <ele>254</ele>
        <time>2011-11-30T13:01:08Z</time>
      </trkpt>
      <trkpt lat="45.29249" lon="5.89349">
        <ele>252</ele>
        <time>2011-11-30T13:01:09Z</time>
      </trkpt>
      <trkpt lat="45.29229" lon="5.89326">
        <ele>256</ele>
        <time>2011-11-30T13:01:12Z</time>
      </trkpt>
      <trkpt lat="45.29216" lon="5.89311">
        <ele>255</ele>
        <time>2011-11-30T13:01:14Z</time>
      </trkpt>
      <trkpt lat="45.29198" lon="5.89287">
        <ele>259</ele>
        <time>2011-11-30T13:01:17Z</time>
      </trkpt>
      <trkpt lat="45.29172" lon="5.89252">
        <ele>255</ele>
        <time>2011-11-30T13:01:21Z</time>
      </trkpt>
      <trkpt lat="45.29125" lon="5.89187">
        <ele>255</ele>
        <time>2011-11-30T13:01:28Z</time>
      </trkpt>
      <trkpt lat="45.29104" lon="5.89158">
        <ele>250</ele>
        <time>2011-11-30T13:01:31Z</time>
      </trkpt>
      <trkpt lat="45.2909" lon="5.8914">
        <ele>251</ele>
        <time>2011-11-30T13:01:33Z</time>
      </trkpt>
      <trkpt lat="45.29083" lon="5.89131">
        <ele>250</ele>
        <time>2011-11-30T13:01:34Z</time>
      </trkpt>
      <trkpt lat="45.29068" lon="5.89112">
        <ele>249</ele>
        <time>2011-11-30T13:01:36Z</time>
      </trkpt>
      <trkpt lat="45.29061" lon="5.89102">
        <ele>250</ele>
        <time>2011-11-30T13:01:37Z</time>
      </trkpt>
      <trkpt lat="45.29046" lon="5.89084">
        <ele>250</ele>
        <time>2011-11-30T13:01:39Z</time>
      </trkpt>
      <trkpt lat="45.29038" lon="5.89075">
        <ele>248</ele>
        <time>2011-11-30T13:01:40Z</time>
      </trkpt>
      <trkpt lat="45.29023" lon="5.89058">
        <ele>247</ele>
        <time>2011-11-30T13:01:42Z</time>
      </trkpt>
      <trkpt lat="45.29016" lon="5.89049">
        <ele>247</ele>
        <time>2011-11-30T13:01:43Z</time>
      </trkpt>
      <trkpt lat="45.29009" lon="5.89039">
        <ele>245</ele>
        <time>2011-11-30T13:01:44Z</time>
      </trkpt>
      <trkpt lat="45.29003" lon="5.89029">
        <ele>245</ele>
        <time>2011-11-30T13:01:45Z</time>
      </trkpt>
      <trkpt lat="45.28991" lon="5.89008">
        <ele>245</ele>
        <time>2011-11-30T13:01:47Z</time>
      </trkpt>
      <trkpt lat="45.28984" lon="5.88999">
        <ele>244</ele>
        <time>2011-11-30T13:01:48Z</time>
      </trkpt>
      <trkpt lat="45.28968" lon="5.88985">
        <ele>244</ele>
        <time>2011-11-30T13:01:50Z</time>
      </trkpt>
      <trkpt lat="45.28961" lon="5.88979">
        <ele>242</ele>
        <time>2011-11-30T13:01:51Z</time>
      </trkpt>
      <trkpt lat="45.28946" lon="5.88967">
        <ele>241</ele>
        <time>2011-11-30T13:01:53Z</time>
      </trkpt>
      <trkpt lat="45.28932" lon="5.88953">
        <ele>241</ele>
        <time>2011-11-30T13:01:55Z</time>
      </trkpt>
      <trkpt lat="45.28925" lon="5.88945">
        <ele>242</ele>
        <time>2011-11-30T13:01:56Z</time>
      </trkpt>
      <trkpt lat="45.28919" lon="5.88938">
        <ele>240</ele>
        <time>2011-11-30T13:01:57Z</time>
      </trkpt>
      <trkpt lat="45.28913" lon="5.88931">
        <ele>240</ele>
        <time>2011-11-30T13:01:58Z</time>
      </trkpt>
      <trkpt lat="45.28908" lon="5.88925">
        <ele>240</ele>
        <time>2011-11-30T13:01:59Z</time>
      </trkpt>
      <trkpt lat="45.28881" lon="5.88888">
        <ele>245</ele>
        <time>2011-11-30T13:02:04Z</time>
      </trkpt>
      <trkpt lat="45.28876" lon="5.88881">
        <ele>243</ele>
        <time>2011-11-30T13:02:05Z</time>
      </trkpt>
      <trkpt lat="45.28866" lon="5.88868">
        <ele>245</ele>
        <time>2011-11-30T13:02:07Z</time>
      </trkpt>
      <trkpt lat="45.28861" lon="5.88862">
        <ele>245</ele>
        <time>2011-11-30T13:02:08Z</time>
      </trkpt>
      <trkpt lat="45.28851" lon="5.88848">
        <ele>244</ele>
        <time>2011-11-30T13:02:10Z</time>
      </trkpt>
      <trkpt lat="45.28846" lon="5.88842">
        <ele>244</ele>
        <time>2011-11-30T13:02:11Z</time>
      </trkpt>
      <trkpt lat="45.28841" lon="5.88835">
        <ele>242</ele>
        <time>2011-11-30T13:02:12Z</time>
      </trkpt>
      <trkpt lat="45.28835" lon="5.88828">
        <ele>242</ele>
        <time>2011-11-30T13:02:13Z</time>
      </trkpt>
      <trkpt lat="45.28815" lon="5.88802">
        <ele>244</ele>
        <time>2011-11-30T13:02:17Z</time>
      </trkpt>
      <trkpt lat="45.28804" lon="5.88789">
        <ele>250</ele>
        <time>2011-11-30T13:02:19Z</time>
      </trkpt>
      <trkpt lat="45.28769" lon="5.88743">
        <ele>244</ele>
        <time>2011-11-30T13:02:26Z</time>
      </trkpt>
      <trkpt lat="45.28764" lon="5.88737">
        <ele>245</ele>
        <time>2011-11-30T13:02:27Z</time>
      </trkpt>
      <trkpt lat="45.28759" lon="5.8873">
        <ele>244</ele>
        <time>2011-11-30T13:02:28Z</time>
      </trkpt>
      <trkpt lat="45.28753" lon="5.88724">
        <ele>246</ele>
        <time>2011-11-30T13:02:29Z</time>
      </trkpt>
      <trkpt lat="45.28743" lon="5.88712">
        <ele>245</ele>
        <time>2011-11-30T13:02:31Z</time>
      </trkpt>
      <trkpt lat="45.28733" lon="5.88699">
        <ele>246</ele>
        <time>2011-11-30T13:02:33Z</time>
      </trkpt>
      <trkpt lat="45.28724" lon="5.88688">
        <ele>245</ele>
        <time>2011-11-30T13:02:35Z</time>
      </trkpt>
      <trkpt lat="45.28715" lon="5.88675">
        <ele>248</ele>
        <time>2011-11-30T13:02:37Z</time>
      </trkpt>
      <trkpt lat="45.28707" lon="5.88661">
        <ele>249</ele>
        <time>2011-11-30T13:02:39Z</time>
      </trkpt>
      <trkpt lat="45.28692" lon="5.88636">
        <ele>253</ele>
        <time>2011-11-30T13:02:43Z</time>
      </trkpt>
      <trkpt lat="45.28667" lon="5.88609">
        <ele>250</ele>
        <time>2011-11-30T13:02:49Z</time>
      </trkpt>
      <trkpt lat="45.2866" lon="5.88601">
        <ele>253</ele>
        <time>2011-11-30T13:02:51Z</time>
      </trkpt>
      <trkpt lat="45.2865" lon="5.8859">
        <ele>254</ele>
        <time>2011-11-30T13:02:54Z</time>
      </trkpt>
      <trkpt lat="45.28632" lon="5.88572">
        <ele>256</ele>
        <time>2011-11-30T13:02:59Z</time>
      </trkpt>
      <trkpt lat="45.28624" lon="5.88564">
        <ele>252</ele>
        <time>2011-11-30T13:03:01Z</time>
      </trkpt>
      <trkpt lat="45.2862" lon="5.8856">
        <ele>254</ele>
        <time>2011-11-30T13:03:02Z</time>
      </trkpt>
      <trkpt lat="45.28617" lon="5.88556">
        <ele>252</ele>
        <time>2011-11-30T13:03:03Z</time>
      </trkpt>
      <trkpt lat="45.28609" lon="5.88549">
        <ele>253</ele>
        <time>2011-11-30T13:03:05Z</time>
      </trkpt>
      <trkpt lat="45.28601" lon="5.88541">
        <ele>254</ele>
        <time>2011-11-30T13:03:07Z</time>
      </trkpt>
      <trkpt lat="45.28592" lon="5.88534">
        <ele>251</ele>
        <time>2011-11-30T13:03:09Z</time>
      </trkpt>
      <trkpt lat="45.28588" lon="5.8853">
        <ele>251</ele>
        <time>2011-11-30T13:03:10Z</time>
      </trkpt>
      <trkpt lat="45.28584" lon="5.88526">
        <ele>251</ele>
        <time>2011-11-30T13:03:11Z</time>
      </trkpt>
      <trkpt lat="45.2858" lon="5.88521">
        <ele>251</ele>
        <time>2011-11-30T13:03:12Z</time>
      </trkpt>
      <trkpt lat="45.2857" lon="5.88513">
        <ele>256</ele>
        <time>2011-11-30T13:03:14Z</time>
      </trkpt>
      <trkpt lat="45.28556" lon="5.88501">
        <ele>250</ele>
        <time>2011-11-30T13:03:17Z</time>
      </trkpt>
      <trkpt lat="45.2854" lon="5.88485">
        <ele>254</ele>
        <time>2011-11-30T13:03:21Z</time>
      </trkpt>
      <trkpt lat="45.28536" lon="5.8848">
        <ele>253</ele>
        <time>2011-11-30T13:03:22Z</time>
      </trkpt>
      <trkpt lat="45.2852" lon="5.88462">
        <ele>258</ele>
        <time>2011-11-30T13:03:26Z</time>
      </trkpt>
      <trkpt lat="45.28517" lon="5.88457">
        <ele>258</ele>
        <time>2011-11-30T13:03:27Z</time>
      </trkpt>
      <trkpt lat="45.28511" lon="5.88449">
        <ele>261</ele>
        <time>2011-11-30T13:03:29Z</time>
      </trkpt>
      <trkpt lat="45.28505" lon="5.88433">
        <ele>256</ele>
        <time>2011-11-30T13:03:33Z</time>
      </trkpt>
      <trkpt lat="45.28502" lon="5.88426">
        <ele>258</ele>
        <time>2011-11-30T13:03:35Z</time>
      </trkpt>
      <trkpt lat="45.28499" lon="5.8842">
        <ele>258</ele>
        <time>2011-11-30T13:03:37Z</time>
      </trkpt>
      <trkpt lat="45.28486" lon="5.88405">
        <ele>261</ele>
        <time>2011-11-30T13:03:43Z</time>
      </trkpt>
      <trkpt lat="45.28481" lon="5.88398">
        <ele>262</ele>
        <time>2011-11-30T13:03:45Z</time>
      </trkpt>
      <trkpt lat="45.28467" lon="5.88379">
        <ele>256</ele>
        <time>2011-11-30T13:03:50Z</time>
      </trkpt>
      <trkpt lat="45.28456" lon="5.88362">
        <ele>259</ele>
        <time>2011-11-30T13:03:53Z</time>
      </trkpt>
      <trkpt lat="45.28447" lon="5.88344">
        <ele>252</ele>
        <time>2011-11-30T13:03:56Z</time>
      </trkpt>
      <trkpt lat="45.28444" lon="5.88338">
        <ele>253</ele>
        <time>2011-11-30T13:03:57Z</time>
      </trkpt>
      <trkpt lat="45.28441" lon="5.88332">
        <ele>253</ele>
        <time>2011-11-30T13:03:58Z</time>
      </trkpt>
      <trkpt lat="45.28434" lon="5.8832">
        <ele>251</ele>
        <time>2011-11-30T13:04:00Z</time>
      </trkpt>
      <trkpt lat="45.28426" lon="5.8831">
        <ele>254</ele>
        <time>2011-11-30T13:04:02Z</time>
      </trkpt>
      <trkpt lat="45.28417" lon="5.88295">
        <ele>253</ele>
        <time>2011-11-30T13:04:04Z</time>
      </trkpt>
      <trkpt lat="45.28405" lon="5.88278">
        <ele>263</ele>
        <time>2011-11-30T13:04:07Z</time>
      </trkpt>
      <trkpt lat="45.28398" lon="5.88267">
        <ele>260</ele>
        <time>2011-11-30T13:04:09Z</time>
      </trkpt>
      <trkpt lat="45.28395" lon="5.88261">
        <ele>262</ele>
        <time>2011-11-30T13:04:10Z</time>
      </trkpt>
      <trkpt lat="45.28391" lon="5.88255">
        <ele>260</ele>
        <time>2011-11-30T13:04:11Z</time>
      </trkpt>
      <trkpt lat="45.28383" lon="5.88244">
        <ele>259</ele>
        <time>2011-11-30T13:04:13Z</time>
      </trkpt>
      <trkpt lat="45.28379" lon="5.88238">
        <ele>262</ele>
        <time>2011-11-30T13:04:14Z</time>
      </trkpt>
      <trkpt lat="45.28372" lon="5.88227">
        <ele>259</ele>
        <time>2011-11-30T13:04:16Z</time>
      </trkpt>
      <trkpt lat="45.28368" lon="5.88222">
        <ele>259</ele>
        <time>2011-11-30T13:04:17Z</time>
      </trkpt>
      <trkpt lat="45.28364" lon="5.88216">
        <ele>258</ele>
        <time>2011-11-30T13:04:18Z</time>
      </trkpt>
      <trkpt lat="45.28359" lon="5.88209">
        <ele>259</ele>
        <time>2011-11-30T13:04:19Z</time>
      </trkpt>
      <trkpt lat="45.28351" lon="5.88196">
        <ele>265</ele>
        <time>2011-11-30T13:04:21Z</time>
      </trkpt>
      <trkpt lat="45.28347" lon="5.88188">
        <ele>263</ele>
        <time>2011-11-30T13:04:22Z</time>
      </trkpt>
      <trkpt lat="45.28344" lon="5.88181">
        <ele>263</ele>
        <time>2011-11-30T13:04:23Z</time>
      </trkpt>
      <trkpt lat="45.2834" lon="5.88175">
        <ele>262</ele>
        <time>2011-11-30T13:04:24Z</time>
      </trkpt>
      <trkpt lat="45.28337" lon="5.88168">
        <ele>264</ele>
        <time>2011-11-30T13:04:25Z</time>
      </trkpt>
      <trkpt lat="45.28335" lon="5.88161">
        <ele>264</ele>
        <time>2011-11-30T13:04:26Z</time>
      </trkpt>
      <trkpt lat="45.28334" lon="5.88153">
        <ele>264</ele>
        <time>2011-11-30T13:04:27Z</time>
      </trkpt>
      <trkpt lat="45.28332" lon="5.88146">
        <ele>264</ele>
        <time>2011-11-30T13:04:28Z</time>
      </trkpt>
      <trkpt lat="45.28315" lon="5.88127">
        <ele>261</ele>
        <time>2011-11-30T13:04:32Z</time>
      </trkpt>
      <trkpt lat="45.28309" lon="5.88123">
        <ele>262</ele>
        <time>2011-11-30T13:04:33Z</time>
      </trkpt>
      <trkpt lat="45.28305" lon="5.88119">
        <ele>262</ele>
        <time>2011-11-30T13:04:34Z</time>
      </trkpt>
      <trkpt lat="45.283" lon="5.88115">
        <ele>264</ele>
        <time>2011-11-30T13:04:35Z</time>
      </trkpt>
      <trkpt lat="45.28296" lon="5.8811">
        <ele>263</ele>
        <time>2011-11-30T13:04:36Z</time>
      </trkpt>
      <trkpt lat="45.28292" lon="5.88105">
        <ele>264</ele>
        <time>2011-11-30T13:04:37Z</time>
      </trkpt>
      <trkpt lat="45.28288" lon="5.88099">
        <ele>264</ele>
        <time>2011-11-30T13:04:38Z</time>
      </trkpt>
      <trkpt lat="45.2828" lon="5.88086">
        <ele>263</ele>
        <time>2011-11-30T13:04:40Z</time>
      </trkpt>
      <trkpt lat="45.28276" lon="5.8808">
        <ele>264</ele>
        <time>2011-11-30T13:04:41Z</time>
      </trkpt>
      <trkpt lat="45.28272" lon="5.88073">
        <ele>262</ele>
        <time>2011-11-30T13:04:42Z</time>
      </trkpt>
      <trkpt lat="45.28264" lon="5.88059">
        <ele>262</ele>
        <time>2011-11-30T13:04:44Z</time>
      </trkpt>
      <trkpt lat="45.2826" lon="5.88053">
        <ele>264</ele>
        <time>2011-11-30T13:04:45Z</time>
      </trkpt>
      <trkpt lat="45.28255" lon="5.88046">
        <ele>264</ele>
        <time>2011-11-30T13:04:46Z</time>
      </trkpt>
      <trkpt lat="45.28245" lon="5.88031">
        <ele>261</ele>
        <time>2011-11-30T13:04:48Z</time>
      </trkpt>
      <trkpt lat="45.28235" lon="5.88017">
        <ele>264</ele>
        <time>2011-11-30T13:04:50Z</time>
      </trkpt>
      <trkpt lat="45.28225" lon="5.88003">
        <ele>260</ele>
        <time>2011-11-30T13:04:52Z</time>
      </trkpt>
      <trkpt lat="45.28216" lon="5.87988">
        <ele>259</ele>
        <time>2011-11-30T13:04:54Z</time>
      </trkpt>
      <trkpt lat="45.28207" lon="5.87972">
        <ele>262</ele>
        <time>2011-11-30T13:04:56Z</time>
      </trkpt>
      <trkpt lat="45.28203" lon="5.87964">
        <ele>261</ele>
        <time>2011-11-30T13:04:57Z</time>
      </trkpt>
      <trkpt lat="45.28194" lon="5.87949">
        <ele>263</ele>
        <time>2011-11-30T13:04:59Z</time>
      </trkpt>
      <trkpt lat="45.28189" lon="5.87941">
        <ele>259</ele>
        <time>2011-11-30T13:05:00Z</time>
      </trkpt>
      <trkpt lat="45.28184" lon="5.87934">
        <ele>259</ele>
        <time>2011-11-30T13:05:01Z</time>
      </trkpt>
      <trkpt lat="45.28179" lon="5.87926">
        <ele>257</ele>
        <time>2011-11-30T13:05:02Z</time>
      </trkpt>
      <trkpt lat="45.28169" lon="5.87909">
        <ele>258</ele>
        <time>2011-11-30T13:05:04Z</time>
      </trkpt>
      <trkpt lat="45.28164" lon="5.87902">
        <ele>257</ele>
        <time>2011-11-30T13:05:05Z</time>
      </trkpt>
      <trkpt lat="45.2815" lon="5.8788">
        <ele>262</ele>
        <time>2011-11-30T13:05:08Z</time>
      </trkpt>
      <trkpt lat="45.28145" lon="5.87873">
        <ele>263</ele>
        <time>2011-11-30T13:05:09Z</time>
      </trkpt>
      <trkpt lat="45.2814" lon="5.87865">
        <ele>262</ele>
        <time>2011-11-30T13:05:10Z</time>
      </trkpt>
      <trkpt lat="45.2813" lon="5.8785">
        <ele>263</ele>
        <time>2011-11-30T13:05:12Z</time>
      </trkpt>
      <trkpt lat="45.28126" lon="5.87843">
        <ele>263</ele>
        <time>2011-11-30T13:05:13Z</time>
      </trkpt>
      <trkpt lat="45.28121" lon="5.87836">
        <ele>264</ele>
        <time>2011-11-30T13:05:14Z</time>
      </trkpt>
      <trkpt lat="45.28113" lon="5.87823">
        <ele>263</ele>
        <time>2011-11-30T13:05:16Z</time>
      </trkpt>
      <trkpt lat="45.28091" lon="5.8779">
        <ele>267</ele>
        <time>2011-11-30T13:05:21Z</time>
      </trkpt>
      <trkpt lat="45.28083" lon="5.87777">
        <ele>267</ele>
        <time>2011-11-30T13:05:23Z</time>
      </trkpt>
      <trkpt lat="45.28079" lon="5.8777">
        <ele>266</ele>
        <time>2011-11-30T13:05:24Z</time>
      </trkpt>
      <trkpt lat="45.28074" lon="5.87763">
        <ele>266</ele>
        <time>2011-11-30T13:05:25Z</time>
      </trkpt>
      <trkpt lat="45.2807" lon="5.87756">
        <ele>265</ele>
        <time>2011-11-30T13:05:26Z</time>
      </trkpt>
      <trkpt lat="45.28065" lon="5.87749">
        <ele>266</ele>
        <time>2011-11-30T13:05:27Z</time>
      </trkpt>
      <trkpt lat="45.2806" lon="5.87742">
        <ele>266</ele>
        <time>2011-11-30T13:05:28Z</time>
      </trkpt>
      <trkpt lat="45.28056" lon="5.87735">
        <ele>266</ele>
        <time>2011-11-30T13:05:29Z</time>
      </trkpt>
      <trkpt lat="45.28051" lon="5.87728">
        <ele>266</ele>
        <time>2011-11-30T13:05:30Z</time>
      </trkpt>
      <trkpt lat="45.28042" lon="5.87713">
        <ele>263</ele>
        <time>2011-11-30T13:05:32Z</time>
      </trkpt>
      <trkpt lat="45.28024" lon="5.87684">
        <ele>264</ele>
        <time>2011-11-30T13:05:36Z</time>
      </trkpt>
      <trkpt lat="45.28015" lon="5.8767">
        <ele>263</ele>
        <time>2011-11-30T13:05:38Z</time>
      </trkpt>
      <trkpt lat="45.28011" lon="5.87663">
        <ele>263</ele>
        <time>2011-11-30T13:05:39Z</time>
      </trkpt>
      <trkpt lat="45.28007" lon="5.87656">
        <ele>264</ele>
        <time>2011-11-30T13:05:40Z</time>
      </trkpt>
      <trkpt lat="45.28002" lon="5.87649">
        <ele>264</ele>
        <time>2011-11-30T13:05:41Z</time>
      </trkpt>
      <trkpt lat="45.27989" lon="5.87627">
        <ele>261</ele>
        <time>2011-11-30T13:05:44Z</time>
      </trkpt>
      <trkpt lat="45.27985" lon="5.8762">
        <ele>263</ele>
        <time>2011-11-30T13:05:45Z</time>
      </trkpt>
      <trkpt lat="45.2798" lon="5.87612">
        <ele>262</ele>
        <time>2011-11-30T13:05:46Z</time>
      </trkpt>
      <trkpt lat="45.27969" lon="5.87596">
        <ele>262</ele>
        <time>2011-11-30T13:05:48Z</time>
      </trkpt>
      <trkpt lat="45.27963" lon="5.87588">
        <ele>261</ele>
        <time>2011-11-30T13:05:49Z</time>
      </trkpt>
      <trkpt lat="45.27957" lon="5.8758">
        <ele>261</ele>
        <time>2011-11-30T13:05:50Z</time>
      </trkpt>
      <trkpt lat="45.27951" lon="5.87572">
        <ele>261</ele>
        <time>2011-11-30T13:05:51Z</time>
      </trkpt>
      <trkpt lat="45.27945" lon="5.87564">
        <ele>261</ele>
        <time>2011-11-30T13:05:52Z</time>
      </trkpt>
      <trkpt lat="45.27939" lon="5.87556">
        <ele>261</ele>
        <time>2011-11-30T13:05:53Z</time>
      </trkpt>
      <trkpt lat="45.27927" lon="5.87541">
        <ele>260</ele>
        <time>2011-11-30T13:05:55Z</time>
      </trkpt>
      <trkpt lat="45.27921" lon="5.87534">
        <ele>261</ele>
        <time>2011-11-30T13:05:56Z</time>
      </trkpt>
      <trkpt lat="45.27915" lon="5.87527">
        <ele>260</ele>
        <time>2011-11-30T13:05:57Z</time>
      </trkpt>
      <trkpt lat="45.27909" lon="5.87521">
        <ele>262</ele>
        <time>2011-11-30T13:05:58Z</time>
      </trkpt>
      <trkpt lat="45.27898" lon="5.87507">
        <ele>262</ele>
        <time>2011-11-30T13:06:00Z</time>
      </trkpt>
      <trkpt lat="45.27892" lon="5.87501">
        <ele>262</ele>
        <time>2011-11-30T13:06:01Z</time>
      </trkpt>
      <trkpt lat="45.27887" lon="5.87494">
        <ele>263</ele>
        <time>2011-11-30T13:06:02Z</time>
      </trkpt>
      <trkpt lat="45.27881" lon="5.87487">
        <ele>261</ele>
        <time>2011-11-30T13:06:03Z</time>
      </trkpt>
      <trkpt lat="45.2786" lon="5.87461">
        <ele>263</ele>
        <time>2011-11-30T13:06:07Z</time>
      </trkpt>
      <trkpt lat="45.27855" lon="5.87455">
        <ele>264</ele>
        <time>2011-11-30T13:06:08Z</time>
      </trkpt>
      <trkpt lat="45.27841" lon="5.87435">
        <ele>263</ele>
        <time>2011-11-30T13:06:11Z</time>
      </trkpt>
      <trkpt lat="45.27836" lon="5.87429">
        <ele>263</ele>
        <time>2011-11-30T13:06:12Z</time>
      </trkpt>
      <trkpt lat="45.27831" lon="5.87423">
        <ele>262</ele>
        <time>2011-11-30T13:06:13Z</time>
      </trkpt>
      <trkpt lat="45.27826" lon="5.87418">
        <ele>264</ele>
        <time>2011-11-30T13:06:14Z</time>
      </trkpt>
      <trkpt lat="45.27821" lon="5.87413">
        <ele>264</ele>
        <time>2011-11-30T13:06:15Z</time>
      </trkpt>
      <trkpt lat="45.27811" lon="5.87403">
        <ele>262</ele>
        <time>2011-11-30T13:06:17Z</time>
      </trkpt>
      <trkpt lat="45.27806" lon="5.87397">
        <ele>266</ele>
        <time>2011-11-30T13:06:18Z</time>
      </trkpt>
      <trkpt lat="45.27801" lon="5.87391">
        <ele>263</ele>
        <time>2011-11-30T13:06:19Z</time>
      </trkpt>
      <trkpt lat="45.27796" lon="5.87385">
        <ele>265</ele>
        <time>2011-11-30T13:06:20Z</time>
      </trkpt>
      <trkpt lat="45.27791" lon="5.8738">
        <ele>264</ele>
        <time>2011-11-30T13:06:21Z</time>
      </trkpt>
      <trkpt lat="45.27781" lon="5.87368">
        <ele>263</ele>
        <time>2011-11-30T13:06:23Z</time>
      </trkpt>
      <trkpt lat="45.27776" lon="5.87362">
        <ele>263</ele>
        <time>2011-11-30T13:06:24Z</time>
      </trkpt>
      <trkpt lat="45.27771" lon="5.87356">
        <ele>262</ele>
        <time>2011-11-30T13:06:25Z</time>
      </trkpt>
      <trkpt lat="45.27755" lon="5.87339">
        <ele>263</ele>
        <time>2011-11-30T13:06:28Z</time>
      </trkpt>
      <trkpt lat="45.2775" lon="5.87333">
        <ele>263</ele>
        <time>2011-11-30T13:06:29Z</time>
      </trkpt>
      <trkpt lat="45.27729" lon="5.87312">
        <ele>267</ele>
        <time>2011-11-30T13:06:33Z</time>
      </trkpt>
      <trkpt lat="45.27724" lon="5.87307">
        <ele>267</ele>
        <time>2011-11-30T13:06:34Z</time>
      </trkpt>
      <trkpt lat="45.27719" lon="5.87301">
        <ele>266</ele>
        <time>2011-11-30T13:06:35Z</time>
      </trkpt>
      <trkpt lat="45.27715" lon="5.87296">
        <ele>267</ele>
        <time>2011-11-30T13:06:36Z</time>
      </trkpt>
      <trkpt lat="45.2771" lon="5.8729">
        <ele>266</ele>
        <time>2011-11-30T13:06:37Z</time>
      </trkpt>
      <trkpt lat="45.27707" lon="5.87286">
        <ele>266</ele>
        <time>2011-11-30T13:06:38Z</time>
      </trkpt>
      <trkpt lat="45.27699" lon="5.8728">
        <ele>265</ele>
        <time>2011-11-30T13:06:40Z</time>
      </trkpt>
      <trkpt lat="45.27692" lon="5.8728">
        <ele>261</ele>
        <time>2011-11-30T13:06:42Z</time>
      </trkpt>
      <trkpt lat="45.27685" lon="5.87283">
        <ele>262</ele>
        <time>2011-11-30T13:06:44Z</time>
      </trkpt>
      <trkpt lat="45.27678" lon="5.87287">
        <ele>263</ele>
        <time>2011-11-30T13:06:46Z</time>
      </trkpt>
      <trkpt lat="45.27665" lon="5.87294">
        <ele>261</ele>
        <time>2011-11-30T13:06:50Z</time>
      </trkpt>
      <trkpt lat="45.2766" lon="5.87303">
        <ele>262</ele>
        <time>2011-11-30T13:06:52Z</time>
      </trkpt>
      <trkpt lat="45.27657" lon="5.87311">
        <ele>262</ele>
        <time>2011-11-30T13:06:53Z</time>
      </trkpt>
      <trkpt lat="45.27647" lon="5.87345">
        <ele>266</ele>
        <time>2011-11-30T13:06:57Z</time>
      </trkpt>
      <trkpt lat="45.2764" lon="5.87374">
        <ele>262</ele>
        <time>2011-11-30T13:07:00Z</time>
      </trkpt>
      <trkpt lat="45.27618" lon="5.87445">
        <ele>260</ele>
        <time>2011-11-30T13:07:07Z</time>
      </trkpt>
      <trkpt lat="45.27608" lon="5.87475">
        <ele>262</ele>
        <time>2011-11-30T13:07:10Z</time>
      </trkpt>
      <trkpt lat="45.27585" lon="5.87546">
        <ele>257</ele>
        <time>2011-11-30T13:07:17Z</time>
      </trkpt>
      <trkpt lat="45.27581" lon="5.87562">
        <ele>258</ele>
        <time>2011-11-30T13:07:20Z</time>
      </trkpt>
      <trkpt lat="45.27578" lon="5.87569">
        <ele>256</ele>
        <time>2011-11-30T13:07:25Z</time>
      </trkpt>
      <trkpt lat="45.27576" lon="5.87576">
        <ele>260</ele>
        <time>2011-11-30T13:07:35Z</time>
      </trkpt>
      <trkpt lat="45.2757" lon="5.876">
        <ele>258</ele>
        <time>2011-11-30T13:07:42Z</time>
      </trkpt>
      <trkpt lat="45.27568" lon="5.87608">
        <ele>258</ele>
        <time>2011-11-30T13:07:43Z</time>
      </trkpt>
      <trkpt lat="45.27565" lon="5.87616">
        <ele>258</ele>
        <time>2011-11-30T13:07:44Z</time>
      </trkpt>
      <trkpt lat="45.27561" lon="5.87635">
        <ele>258</ele>
        <time>2011-11-30T13:07:46Z</time>
      </trkpt>
      <trkpt lat="45.27559" lon="5.87646">
        <ele>257</ele>
        <time>2011-11-30T13:07:47Z</time>
      </trkpt>
      <trkpt lat="45.27554" lon="5.87669">
        <ele>256</ele>
        <time>2011-11-30T13:07:49Z</time>
      </trkpt>
      <trkpt lat="45.2755" lon="5.87694">
        <ele>257</ele>
        <time>2011-11-30T13:07:51Z</time>
      </trkpt>
      <trkpt lat="45.27543" lon="5.87748">
        <ele>255</ele>
        <time>2011-11-30T13:07:55Z</time>
      </trkpt>
      <trkpt lat="45.27541" lon="5.87762">
        <ele>255</ele>
        <time>2011-11-30T13:07:56Z</time>
      </trkpt>
      <trkpt lat="45.27539" lon="5.8779">
        <ele>255</ele>
        <time>2011-11-30T13:07:58Z</time>
      </trkpt>
      <trkpt lat="45.27532" lon="5.87845">
        <ele>250</ele>
        <time>2011-11-30T13:08:02Z</time>
      </trkpt>
      <trkpt lat="45.27525" lon="5.87909">
        <ele>253</ele>
        <time>2011-11-30T13:08:07Z</time>
      </trkpt>
      <trkpt lat="45.27523" lon="5.87922">
        <ele>252</ele>
        <time>2011-11-30T13:08:08Z</time>
      </trkpt>
      <trkpt lat="45.27521" lon="5.87934">
        <ele>252</ele>
        <time>2011-11-30T13:08:09Z</time>
      </trkpt>
      <trkpt lat="45.27518" lon="5.87947">
        <ele>251</ele>
        <time>2011-11-30T13:08:10Z</time>
      </trkpt>
      <trkpt lat="45.27508" lon="5.87995">
        <ele>245</ele>
        <time>2011-11-30T13:08:14Z</time>
      </trkpt>
      <trkpt lat="45.27506" lon="5.88007">
        <ele>246</ele>
        <time>2011-11-30T13:08:15Z</time>
      </trkpt>
      <trkpt lat="45.27498" lon="5.88046">
        <ele>241</ele>
        <time>2011-11-30T13:08:18Z</time>
      </trkpt>
      <trkpt lat="45.27495" lon="5.88059">
        <ele>241</ele>
        <time>2011-11-30T13:08:19Z</time>
      </trkpt>
      <trkpt lat="45.27492" lon="5.88071">
        <ele>241</ele>
        <time>2011-11-30T13:08:20Z</time>
      </trkpt>
      <trkpt lat="45.27486" lon="5.88092">
        <ele>241</ele>
        <time>2011-11-30T13:08:22Z</time>
      </trkpt>
      <trkpt lat="45.27479" lon="5.88115">
        <ele>240</ele>
        <time>2011-11-30T13:08:24Z</time>
      </trkpt>
      <trkpt lat="45.27459" lon="5.88189">
        <ele>242</ele>
        <time>2011-11-30T13:08:30Z</time>
      </trkpt>
      <trkpt lat="45.2745" lon="5.88214">
        <ele>242</ele>
        <time>2011-11-30T13:08:32Z</time>
      </trkpt>
      <trkpt lat="45.27445" lon="5.88225">
        <ele>242</ele>
        <time>2011-11-30T13:08:33Z</time>
      </trkpt>
      <trkpt lat="45.2744" lon="5.88237">
        <ele>241</ele>
        <time>2011-11-30T13:08:34Z</time>
      </trkpt>
      <trkpt lat="45.27414" lon="5.88296">
        <ele>247</ele>
        <time>2011-11-30T13:08:39Z</time>
      </trkpt>
      <trkpt lat="45.27408" lon="5.88309">
        <ele>247</ele>
        <time>2011-11-30T13:08:40Z</time>
      </trkpt>
      <trkpt lat="45.27381" lon="5.88359">
        <ele>240</ele>
        <time>2011-11-30T13:08:44Z</time>
      </trkpt>
      <trkpt lat="45.27356" lon="5.88407">
        <ele>240</ele>
        <time>2011-11-30T13:08:48Z</time>
      </trkpt>
      <trkpt lat="45.2735" lon="5.8842">
        <ele>237</ele>
        <time>2011-11-30T13:08:49Z</time>
      </trkpt>
      <trkpt lat="45.27344" lon="5.88432">
        <ele>237</ele>
        <time>2011-11-30T13:08:50Z</time>
      </trkpt>
      <trkpt lat="45.27324" lon="5.88467">
        <ele>233</ele>
        <time>2011-11-30T13:08:55Z</time>
      </trkpt>
      <trkpt lat="45.27318" lon="5.88465">
        <ele>232</ele>
        <time>2011-11-30T13:08:57Z</time>
      </trkpt>
      <trkpt lat="45.27311" lon="5.88467">
        <ele>235</ele>
        <time>2011-11-30T13:08:59Z</time>
      </trkpt>
      <trkpt lat="45.27306" lon="5.88471">
        <ele>234</ele>
        <time>2011-11-30T13:09:00Z</time>
      </trkpt>
      <trkpt lat="45.273" lon="5.88486">
        <ele>234</ele>
        <time>2011-11-30T13:09:02Z</time>
      </trkpt>
      <trkpt lat="45.27298" lon="5.88534">
        <ele>235</ele>
        <time>2011-11-30T13:09:07Z</time>
      </trkpt>
      <trkpt lat="45.27291" lon="5.88554">
        <ele>235</ele>
        <time>2011-11-30T13:09:09Z</time>
      </trkpt>
      <trkpt lat="45.27287" lon="5.88563">
        <ele>234</ele>
        <time>2011-11-30T13:09:10Z</time>
      </trkpt>
      <trkpt lat="45.27267" lon="5.88613">
        <ele>231</ele>
        <time>2011-11-30T13:09:15Z</time>
      </trkpt>
      <trkpt lat="45.27259" lon="5.88634">
        <ele>233</ele>
        <time>2011-11-30T13:09:17Z</time>
      </trkpt>
      <trkpt lat="45.27255" lon="5.88644">
        <ele>233</ele>
        <time>2011-11-30T13:09:18Z</time>
      </trkpt>
      <trkpt lat="45.2725" lon="5.88655">
        <ele>232</ele>
        <time>2011-11-30T13:09:19Z</time>
      </trkpt>
      <trkpt lat="45.27246" lon="5.88665">
        <ele>232</ele>
        <time>2011-11-30T13:09:20Z</time>
      </trkpt>
      <trkpt lat="45.27231" lon="5.88698">
        <ele>231</ele>
        <time>2011-11-30T13:09:23Z</time>
      </trkpt>
      <trkpt lat="45.27226" lon="5.88709">
        <ele>234</ele>
        <time>2011-11-30T13:09:24Z</time>
      </trkpt>
      <trkpt lat="45.27218" lon="5.8873">
        <ele>227</ele>
        <time>2011-11-30T13:09:26Z</time>
      </trkpt>
      <trkpt lat="45.27213" lon="5.88742">
        <ele>231</ele>
        <time>2011-11-30T13:09:27Z</time>
      </trkpt>
      <trkpt lat="45.27209" lon="5.88752">
        <ele>231</ele>
        <time>2011-11-30T13:09:28Z</time>
      </trkpt>
      <trkpt lat="45.27204" lon="5.88762">
        <ele>233</ele>
        <time>2011-11-30T13:09:29Z</time>
      </trkpt>
      <trkpt lat="45.27195" lon="5.8878">
        <ele>233</ele>
        <time>2011-11-30T13:09:31Z</time>
      </trkpt>
      <trkpt lat="45.27185" lon="5.88796">
        <ele>221</ele>
        <time>2011-11-30T13:09:33Z</time>
      </trkpt>
      <trkpt lat="45.27179" lon="5.88801">
        <ele>222</ele>
        <time>2011-11-30T13:09:34Z</time>
      </trkpt>
      <trkpt lat="45.27168" lon="5.88799">
        <ele>228</ele>
        <time>2011-11-30T13:09:36Z</time>
      </trkpt>
      <trkpt lat="45.27155" lon="5.88789">
        <ele>232</ele>
        <time>2011-11-30T13:09:38Z</time>
      </trkpt>
      <trkpt lat="45.27148" lon="5.88784">
        <ele>233</ele>
        <time>2011-11-30T13:09:39Z</time>
      </trkpt>
      <trkpt lat="45.27135" lon="5.88773">
        <ele>232</ele>
        <time>2011-11-30T13:09:41Z</time>
      </trkpt>
      <trkpt lat="45.27128" lon="5.88769">
        <ele>233</ele>
        <time>2011-11-30T13:09:42Z</time>
      </trkpt>
      <trkpt lat="45.27121" lon="5.88765">
        <ele>232</ele>
        <time>2011-11-30T13:09:43Z</time>
      </trkpt>
      <trkpt lat="45.27114" lon="5.8876">
        <ele>233</ele>
        <time>2011-11-30T13:09:44Z</time>
      </trkpt>
      <trkpt lat="45.27095" lon="5.88744">
        <ele>234</ele>
        <time>2011-11-30T13:09:47Z</time>
      </trkpt>
      <trkpt lat="45.2708" lon="5.88731">
        <ele>238</ele>
        <time>2011-11-30T13:09:49Z</time>
      </trkpt>
      <trkpt lat="45.27074" lon="5.88724">
        <ele>237</ele>
        <time>2011-11-30T13:09:50Z</time>
      </trkpt>
      <trkpt lat="45.27067" lon="5.88719">
        <ele>238</ele>
        <time>2011-11-30T13:09:51Z</time>
      </trkpt>
      <trkpt lat="45.27056" lon="5.88708">
        <ele>236</ele>
        <time>2011-11-30T13:09:53Z</time>
      </trkpt>
      <trkpt lat="45.27049" lon="5.88703">
        <ele>237</ele>
        <time>2011-11-30T13:09:54Z</time>
      </trkpt>
      <trkpt lat="45.27043" lon="5.88698">
        <ele>231</ele>
        <time>2011-11-30T13:09:55Z</time>
      </trkpt>
      <trkpt lat="45.27037" lon="5.88693">
        <ele>230</ele>
        <time>2011-11-30T13:09:56Z</time>
      </trkpt>
      <trkpt lat="45.27029" lon="5.88687">
        <ele>234</ele>
        <time>2011-11-30T13:09:57Z</time>
      </trkpt>
      <trkpt lat="45.27021" lon="5.8868">
        <ele>232</ele>
        <time>2011-11-30T13:09:58Z</time>
      </trkpt>
      <trkpt lat="45.27013" lon="5.88673">
        <ele>231</ele>
        <time>2011-11-30T13:09:59Z</time>
      </trkpt>
      <trkpt lat="45.27006" lon="5.88668">
        <ele>235</ele>
        <time>2011-11-30T13:10:00Z</time>
      </trkpt>
      <trkpt lat="45.26999" lon="5.88662">
        <ele>235</ele>
        <time>2011-11-30T13:10:01Z</time>
      </trkpt>
      <trkpt lat="45.26992" lon="5.88657">
        <ele>233</ele>
        <time>2011-11-30T13:10:02Z</time>
      </trkpt>
      <trkpt lat="45.26985" lon="5.88651">
        <ele>234</ele>
        <time>2011-11-30T13:10:03Z</time>
      </trkpt>
      <trkpt lat="45.26972" lon="5.88642">
        <ele>234</ele>
        <time>2011-11-30T13:10:05Z</time>
      </trkpt>
      <trkpt lat="45.26966" lon="5.88636">
        <ele>236</ele>
        <time>2011-11-30T13:10:06Z</time>
      </trkpt>
      <trkpt lat="45.26952" lon="5.88626">
        <ele>232</ele>
        <time>2011-11-30T13:10:08Z</time>
      </trkpt>
      <trkpt lat="45.26946" lon="5.88621">
        <ele>233</ele>
        <time>2011-11-30T13:10:09Z</time>
      </trkpt>
      <trkpt lat="45.26933" lon="5.88611">
        <ele>232</ele>
        <time>2011-11-30T13:10:11Z</time>
      </trkpt>
      <trkpt lat="45.2692" lon="5.88604">
        <ele>227</ele>
        <time>2011-11-30T13:10:13Z</time>
      </trkpt>
      <trkpt lat="45.26906" lon="5.88602">
        <ele>231</ele>
        <time>2011-11-30T13:10:15Z</time>
      </trkpt>
      <trkpt lat="45.26899" lon="5.88604">
        <ele>232</ele>
        <time>2011-11-30T13:10:16Z</time>
      </trkpt>
      <trkpt lat="45.26877" lon="5.88612">
        <ele>228</ele>
        <time>2011-11-30T13:10:19Z</time>
      </trkpt>
      <trkpt lat="45.2687" lon="5.88616">
        <ele>228</ele>
        <time>2011-11-30T13:10:20Z</time>
      </trkpt>
      <trkpt lat="45.26846" lon="5.88628">
        <ele>234</ele>
        <time>2011-11-30T13:10:23Z</time>
      </trkpt>
      <trkpt lat="45.26832" lon="5.88635">
        <ele>228</ele>
        <time>2011-11-30T13:10:25Z</time>
      </trkpt>
      <trkpt lat="45.26816" lon="5.88641">
        <ele>229</ele>
        <time>2011-11-30T13:10:27Z</time>
      </trkpt>
      <trkpt lat="45.26808" lon="5.88644">
        <ele>232</ele>
        <time>2011-11-30T13:10:28Z</time>
      </trkpt>
      <trkpt lat="45.268" lon="5.88644">
        <ele>232</ele>
        <time>2011-11-30T13:10:29Z</time>
      </trkpt>
      <trkpt lat="45.26793" lon="5.88643">
        <ele>232</ele>
        <time>2011-11-30T13:10:30Z</time>
      </trkpt>
      <trkpt lat="45.26784" lon="5.88641">
        <ele>230</ele>
        <time>2011-11-30T13:10:31Z</time>
      </trkpt>
      <trkpt lat="45.2677" lon="5.88634">
        <ele>230</ele>
        <time>2011-11-30T13:10:33Z</time>
      </trkpt>
      <trkpt lat="45.26766" lon="5.88626">
        <ele>230</ele>
        <time>2011-11-30T13:10:34Z</time>
      </trkpt>
      <trkpt lat="45.26736" lon="5.88592">
        <ele>234</ele>
        <time>2011-11-30T13:10:39Z</time>
      </trkpt>
      <trkpt lat="45.2673" lon="5.88584">
        <ele>234</ele>
        <time>2011-11-30T13:10:40Z</time>
      </trkpt>
      <trkpt lat="45.26725" lon="5.88577">
        <ele>235</ele>
        <time>2011-11-30T13:10:41Z</time>
      </trkpt>
      <trkpt lat="45.26714" lon="5.88562">
        <ele>234</ele>
        <time>2011-11-30T13:10:43Z</time>
      </trkpt>
      <trkpt lat="45.26702" lon="5.88536">
        <ele>230</ele>
        <time>2011-11-30T13:10:46Z</time>
      </trkpt>
      <trkpt lat="45.26697" lon="5.88508">
        <ele>232</ele>
        <time>2011-11-30T13:10:49Z</time>
      </trkpt>
      <trkpt lat="45.267" lon="5.8848">
        <ele>229</ele>
        <time>2011-11-30T13:10:52Z</time>
      </trkpt>
      <trkpt lat="45.26702" lon="5.88472">
        <ele>229</ele>
        <time>2011-11-30T13:10:53Z</time>
      </trkpt>
      <trkpt lat="45.26703" lon="5.88465">
        <ele>228</ele>
        <time>2011-11-30T13:10:54Z</time>
      </trkpt>
      <trkpt lat="45.26705" lon="5.88458">
        <ele>228</ele>
        <time>2011-11-30T13:10:55Z</time>
      </trkpt>
      <trkpt lat="45.26709" lon="5.88449">
        <ele>226</ele>
        <time>2011-11-30T13:10:57Z</time>
      </trkpt>
      <trkpt lat="45.26716" lon="5.88409">
        <ele>236</ele>
        <time>2011-11-30T13:11:08Z</time>
      </trkpt>
      <trkpt lat="45.26718" lon="5.88402">
        <ele>234</ele>
        <time>2011-11-30T13:11:11Z</time>
      </trkpt>
      <trkpt lat="45.2672" lon="5.88394">
        <ele>235</ele>
        <time>2011-11-30T13:11:29Z</time>
      </trkpt>
      <trkpt lat="45.26726" lon="5.8838">
        <ele>235</ele>
        <time>2011-11-30T13:11:33Z</time>
      </trkpt>
      <trkpt lat="45.26729" lon="5.88372">
        <ele>236</ele>
        <time>2011-11-30T13:11:35Z</time>
      </trkpt>
      <trkpt lat="45.26731" lon="5.88367">
        <ele>232</ele>
        <time>2011-11-30T13:11:36Z</time>
      </trkpt>
      <trkpt lat="45.26735" lon="5.88355">
        <ele>236</ele>
        <time>2011-11-30T13:11:38Z</time>
      </trkpt>
      <trkpt lat="45.26738" lon="5.88345">
        <ele>232</ele>
        <time>2011-11-30T13:11:40Z</time>
      </trkpt>
      <trkpt lat="45.26744" lon="5.88339">
        <ele>232</ele>
        <time>2011-11-30T13:11:42Z</time>
      </trkpt>
      <trkpt lat="45.26749" lon="5.88338">
        <ele>236</ele>
        <time>2011-11-30T13:11:43Z</time>
      </trkpt>
      <trkpt lat="45.26757" lon="5.8834">
        <ele>236</ele>
        <time>2011-11-30T13:11:45Z</time>
      </trkpt>
      <trkpt lat="45.26769" lon="5.88352">
        <ele>233</ele>
        <time>2011-11-30T13:11:48Z</time>
      </trkpt>
      <trkpt lat="45.26785" lon="5.88365">
        <ele>236</ele>
        <time>2011-11-30T13:11:51Z</time>
      </trkpt>
      <trkpt lat="45.26801" lon="5.88378">
        <ele>236</ele>
        <time>2011-11-30T13:11:54Z</time>
      </trkpt>
      <trkpt lat="45.26806" lon="5.88383">
        <ele>236</ele>
        <time>2011-11-30T13:11:55Z</time>
      </trkpt>
      <trkpt lat="45.26815" lon="5.88392">
        <ele>231</ele>
        <time>2011-11-30T13:11:57Z</time>
      </trkpt>
      <trkpt lat="45.2682" lon="5.88395">
        <ele>235</ele>
        <time>2011-11-30T13:11:58Z</time>
      </trkpt>
      <trkpt lat="45.26832" lon="5.88403">
        <ele>225</ele>
        <time>2011-11-30T13:12:01Z</time>
      </trkpt>
      <trkpt lat="45.26842" lon="5.88408">
        <ele>232</ele>
        <time>2011-11-30T13:12:04Z</time>
      </trkpt>
      <trkpt lat="45.26848" lon="5.8841">
        <ele>231</ele>
        <time>2011-11-30T13:12:06Z</time>
      </trkpt>
      <trkpt lat="45.26867" lon="5.88415">
        <ele>240</ele>
        <time>2011-11-30T13:12:11Z</time>
      </trkpt>
      <trkpt lat="45.26875" lon="5.88415">
        <ele>238</ele>
        <time>2011-11-30T13:12:13Z</time>
      </trkpt>
      <trkpt lat="45.26879" lon="5.88414">
        <ele>240</ele>
        <time>2011-11-30T13:12:15Z</time>
      </trkpt>
      <trkpt lat="45.26886" lon="5.88407">
        <ele>236</ele>
        <time>2011-11-30T13:12:17Z</time>
      </trkpt>
      <trkpt lat="45.2689" lon="5.88395">
        <ele>239</ele>
        <time>2011-11-30T13:12:19Z</time>
      </trkpt>
      <trkpt lat="45.26892" lon="5.88386">
        <ele>235</ele>
        <time>2011-11-30T13:12:21Z</time>
      </trkpt>
      <trkpt lat="45.26893" lon="5.88391">
        <ele>240</ele>
        <time>2011-11-30T13:20:38Z</time>
      </trkpt>
      <trkpt lat="45.26885" lon="5.88411">
        <ele>235</ele>
        <time>2011-11-30T13:20:49Z</time>
      </trkpt>
      <trkpt lat="45.2688" lon="5.88411">
        <ele>239</ele>
        <time>2011-11-30T13:20:53Z</time>
      </trkpt>
      <trkpt lat="45.2687" lon="5.88399">
        <ele>244</ele>
        <time>2011-11-30T13:21:03Z</time>
      </trkpt>
      <trkpt lat="45.26865" lon="5.88394">
        <ele>240</ele>
        <time>2011-11-30T13:21:08Z</time>
      </trkpt>
      <trkpt lat="45.26866" lon="5.88387">
        <ele>246</ele>
        <time>2011-11-30T13:21:14Z</time>
      </trkpt>
      <trkpt lat="45.26872" lon="5.88374">
        <ele>240</ele>
        <time>2011-11-30T13:21:22Z</time>
      </trkpt>
      <trkpt lat="45.2687" lon="5.88367">
        <ele>239</ele>
        <time>2011-11-30T13:21:25Z</time>
      </trkpt>
      <trkpt lat="45.26866" lon="5.88362">
        <ele>239</ele>
        <time>2011-11-30T13:21:27Z</time>
      </trkpt>
      <trkpt lat="45.2686" lon="5.88354">
        <ele>246</ele>
        <time>2011-11-30T13:21:31Z</time>
      </trkpt>
      <trkpt lat="45.26855" lon="5.8835">
        <ele>244</ele>
        <time>2011-11-30T13:21:34Z</time>
      </trkpt>
    </trkseg>
  </trk>
</gpx>